Observation data for Odell on 05/15/2018      Previous  Date  Next       Current Mesonet Observations  Soil Data  Daily Summary Page  Observations in Plain Language
KOD1 150500Z 12009KT 20/16 A2988 RMK A01 T02000155  RH  076%=      5-min Rain = 0
KOD1 150501Z 12009KT 20/16 A2988 RMK A01 T02000156  RH  076%=      5-min Rain = 0
KOD1 150502Z 12009KT 20/16 A2988 RMK A01 T01990156  RH  076%=      5-min Rain = 0
KOD1 150503Z 10009KT 20/16 A2988 RMK A01 T01990156  RH  076%=      5-min Rain = 0
KOD1 150504Z 09012KT 20/16 A2988 RMK A01 T01980156  RH  077%=      5-min Rain = 0
KOD1 150505Z 08012KT 20/16 A2988 RMK A01 T01990156  RH  076%=      5-min Rain = 0
KOD1 150506Z 08013KT 20/16 A2988 RMK A01 T01990155  RH  076%=      5-min Rain = 0
KOD1 150507Z 08013KT 20/16 A2988 RMK A01 T02010155  RH  075%=      5-min Rain = 0
KOD1 150508Z 09012KT 20/16 A2988 RMK A01 T02020155  RH  074%=      5-min Rain = 0
KOD1 150509Z 10010KT 20/16 A2989 RMK A01 T02020155  RH  074%=      5-min Rain = 0
KOD1 150510Z 11010KT 20/16 A2989 RMK A01 T02020156  RH  075%=      5-min Rain = 0
KOD1 150511Z 11011KT 20/16 A2989 RMK A01 T02010156  RH  075%=      5-min Rain = 0
KOD1 150512Z 11011KT 20/16 A2989 RMK A01 T02000156  RH  076%=      5-min Rain = 0
KOD1 150513Z 11011KT 20/16 A2989 RMK A01 T01980157  RH  077%=      5-min Rain = 0
KOD1 150514Z 11010KT 20/16 A2989 RMK A01 T01980157  RH  077%=      5-min Rain = 0
KOD1 150515Z 11009KT 20/16 A2989 RMK A01 T01970157  RH  078%=      5-min Rain = 0
KOD1 150516Z 11011KT 20/16 A2989 RMK A01 T01960157  RH  078%=      5-min Rain = 0
KOD1 150517Z 10011KT 20/16 A2989 RMK A01 T01960157  RH  078%=      5-min Rain = 0
KOD1 150518Z 10010KT 20/16 A2989 RMK A01 T01960157  RH  078%=      5-min Rain = 0
KOD1 150519Z 10011KT 20/16 A2989 RMK A01 T01970158  RH  078%=      5-min Rain = 0
KOD1 150520Z 10010KT 20/16 A2989 RMK A01 T01970158  RH  078%=      5-min Rain = 0
KOD1 150521Z 11009KT 20/16 A2989 RMK A01 T01970158  RH  078%=      5-min Rain = 0
KOD1 150522Z 11010KT 20/16 A2989 RMK A01 T01970158  RH  078%=      5-min Rain = 0
KOD1 150523Z 11010KT 20/16 A299 RMK A01 T01970158  RH  078%=      5-min Rain = 0
KOD1 150524Z 11011KT 20/16 A299 RMK A01 T01970158  RH  078%=      5-min Rain = 0
KOD1 150525Z 12011KT 20/16 A299 RMK A01 T01970158  RH  078%=      5-min Rain = 0
KOD1 150526Z 11010KT 20/16 A299 RMK A01 T01970158  RH  078%=      5-min Rain = 0
KOD1 150527Z 11010KT 20/16 A299 RMK A01 T01980158  RH  078%=      5-min Rain = 0
KOD1 150528Z 11010KT 20/16 A299 RMK A01 T01980158  RH  078%=      5-min Rain = 0
KOD1 150529Z 11011KT 20/16 A2989 RMK A01 T01980158  RH  077%=      5-min Rain = 0
KOD1 150530Z 11011KT 20/16 A2989 RMK A01 T01990158  RH  077%=      5-min Rain = 0
KOD1 150531Z 12010KT 20/16 A2989 RMK A01 T01990158  RH  077%=      5-min Rain = 0
KOD1 150532Z 12009KT 20/16 A2989 RMK A01 T01990158  RH  077%=      5-min Rain = 0
KOD1 150533Z 12010KT 20/16 A2989 RMK A01 T01990158  RH  077%=      5-min Rain = 0
KOD1 150534Z 12010KT 20/16 A2989 RMK A01 T01980159  RH  078%=      5-min Rain = 0
KOD1 150535Z 12010KT 20/16 A299 RMK A01 T01980159  RH  078%=      5-min Rain = 0
KOD1 150536Z 12010KT 20/16 A2989 RMK A01 T01970159  RH  078%=      5-min Rain = 0
KOD1 150537Z 12009KT 20/16 A2989 RMK A01 T01970159  RH  079%=      5-min Rain = 0
KOD1 150538Z 12009KT 20/16 A2989 RMK A01 T01970159  RH  079%=      5-min Rain = 0
KOD1 150539Z 12009KT 20/16 A2989 RMK A01 T01970159  RH  079%=      5-min Rain = 0
KOD1 150540Z 12009KT 20/16 A2989 RMK A01 T01960159  RH  079%=      5-min Rain = 0
KOD1 150541Z 12009KT 20/16 A2989 RMK A01 T01960159  RH  079%=      5-min Rain = 0
KOD1 150542Z 12009KT 20/16 A2989 RMK A01 T01960159  RH  080%=      5-min Rain = 0
KOD1 150543Z 11008KT 20/16 A2989 RMK A01 T01950159  RH  080%=      5-min Rain = 0
KOD1 150544Z 11009KT 20/16 A2989 RMK A01 T01950160  RH  080%=      5-min Rain = 0
KOD1 150545Z 11010KT 20/16 A2989 RMK A01 T01950160  RH  080%=      5-min Rain = 0
KOD1 150546Z 12010KT 20/16 A2989 RMK A01 T01950160  RH  080%=      5-min Rain = 0
KOD1 150547Z 12009KT 20/16 A2989 RMK A01 T01950160  RH  080%=      5-min Rain = 0
KOD1 150548Z 12008KT 19/16 A2989 RMK A01 T01940160  RH  080%=      5-min Rain = 0
KOD1 150549Z 12010KT 19/16 A2989 RMK A01 T01940160  RH  080%=      5-min Rain = 0
KOD1 150550Z 12009KT 20/16 A2989 RMK A01 T01950160  RH  080%=      5-min Rain = 0
KOD1 150551Z 12009KT 20/16 A2989 RMK A01 T01950160  RH  080%=      5-min Rain = 0
KOD1 150552Z 12009KT 20/16 A2989 RMK A01 T01950160  RH  080%=      5-min Rain = 0
KOD1 150553Z 12012KT 20/16 A2989 RMK A01 T01950160  RH  080%=      5-min Rain = 0
KOD1 150554Z 12011KT 20/16 A2989 RMK A01 T01960160  RH  080%=      5-min Rain = 0
KOD1 150555Z 12011KT 20/16 A2989 RMK A01 T01960160  RH  080%=      5-min Rain = 0
KOD1 150556Z 11010KT 20/16 A2989 RMK A01 T01960161  RH  080%=      5-min Rain = 0
KOD1 150557Z 11010KT 20/16 A2989 RMK A01 T01960161  RH  080%=      5-min Rain = 0
KOD1 150558Z 11009KT 20/16 A2989 RMK A01 T01960161  RH  080%=      5-min Rain = 0
KOD1 150559Z 12008KT 20/16 A2989 RMK A01 T01960161  RH  080%=      5-min Rain = 0
KOD1 150600Z 12010KT 20/16 A2989 RMK A01 T01960162  RH  081%=      5-min Rain = 0
KOD1 150601Z 12011KT 20/16 A2989 RMK A01 T01960162  RH  081%=      5-min Rain = 0
KOD1 150602Z 12010KT 20/16 A2989 RMK A01 T01960162  RH  081%=      5-min Rain = 0
KOD1 150603Z 12008KT 20/16 A2989 RMK A01 T01960163  RH  081%=      5-min Rain = 0
KOD1 150604Z 11008KT 20/16 A2989 RMK A01 T01960163  RH  081%=      5-min Rain = 0
KOD1 150605Z 11007KT 20/16 A2989 RMK A01 T01950163  RH  081%=      5-min Rain = 0
KOD1 150606Z 11007KT 20/16 A2989 RMK A01 T01950163  RH  082%=      5-min Rain = 0
KOD1 150607Z 11007KT 20/16 A2989 RMK A01 T01950163  RH  082%=      5-min Rain = 0
KOD1 150608Z 12009KT 20/16 A2989 RMK A01 T01950163  RH  082%=      5-min Rain = 0
KOD1 150609Z 12008KT 20/16 A2989 RMK A01 T01950164  RH  082%=      5-min Rain = 0
KOD1 150610Z 12009KT 20/16 A2989 RMK A01 T01950164  RH  082%=      5-min Rain = 0
KOD1 150611Z 13008KT 20/16 A2989 RMK A01 T01950164  RH  082%=      5-min Rain = 0
KOD1 150612Z 13008KT 20/16 A2989 RMK A01 T01950164  RH  082%=      5-min Rain = 0
KOD1 150613Z 13008KT 20/16 A2988 RMK A01 T01950164  RH  082%=      5-min Rain = 0
KOD1 150614Z 13007KT 20/17 A2988 RMK A01 T01960165  RH  082%=      5-min Rain = 0
KOD1 150615Z 13009KT 20/17 A2988 RMK A01 T01960165  RH  082%=      5-min Rain = 0
KOD1 150616Z 13007KT 20/17 A2988 RMK A01 T01960165  RH  082%=      5-min Rain = 0
KOD1 150617Z 13007KT 20/17 A2988 RMK A01 T01960165  RH  082%=      5-min Rain = 0
KOD1 150618Z 13006KT 20/17 A2988 RMK A01 T01950165  RH  083%=      5-min Rain = 0
KOD1 150619Z 13006KT 20/17 A2988 RMK A01 T01950165  RH  083%=      5-min Rain = 0
KOD1 150620Z 13006KT 19/17 A2988 RMK A01 T01940165  RH  083%=      5-min Rain = 0
KOD1 150621Z 14006KT 19/17 A2988 RMK A01 T01940165  RH  083%=      5-min Rain = 0
KOD1 150622Z 13007KT 19/17 A2988 RMK A01 T01940165  RH  084%=      5-min Rain = 0
KOD1 150623Z 13007KT 19/17 A2988 RMK A01 T01940166  RH  084%=      5-min Rain = 0
KOD1 150624Z 13007KT 19/17 A2988 RMK A01 T01940166  RH  084%=      5-min Rain = 0
KOD1 150625Z 13007KT 19/17 A2988 RMK A01 T01940166  RH  084%=      5-min Rain = 0
KOD1 150626Z 13006KT 19/17 A2988 RMK A01 T01940166  RH  084%=      5-min Rain = 0
KOD1 150627Z 13006KT 19/17 A2988 RMK A01 T01940166  RH  084%=      5-min Rain = 0
KOD1 150628Z 13006KT 19/17 A2988 RMK A01 T01930166  RH  084%=      5-min Rain = 0
KOD1 150629Z 13005KT 19/17 A2988 RMK A01 T01930165  RH  084%=      5-min Rain = 0
KOD1 150630Z 13006KT 19/17 A2989 RMK A01 T01930166  RH  084%=      5-min Rain = 0
KOD1 150631Z 13006KT 19/17 A2989 RMK A01 T01920166  RH  085%=      5-min Rain = 0
KOD1 150632Z 14006KT 19/17 A2989 RMK A01 T01930166  RH  085%=      5-min Rain = 0
KOD1 150633Z 13006KT 19/17 A2989 RMK A01 T01930166  RH  085%=      5-min Rain = 0
KOD1 150634Z 13006KT 19/17 A2989 RMK A01 T01930166  RH  085%=      5-min Rain = 0
KOD1 150635Z 13006KT 19/17 A2989 RMK A01 T01930166  RH  085%=      5-min Rain = 0
KOD1 150636Z 13006KT 19/17 A2989 RMK A01 T01930166  RH  085%=      5-min Rain = 0
KOD1 150637Z 13005KT 19/17 A2989 RMK A01 T01930166  RH  085%=      5-min Rain = 0
KOD1 150638Z 14005KT 19/17 A2989 RMK A01 T01930166  RH  085%=      5-min Rain = 0
KOD1 150639Z 14005KT 19/17 A2989 RMK A01 T01930166  RH  085%=      5-min Rain = 0
KOD1 150640Z 14005KT 19/17 A2989 RMK A01 T01930166  RH  085%=      5-min Rain = 0
KOD1 150641Z 14005KT 19/17 A2989 RMK A01 T01930166  RH  085%=      5-min Rain = 0
KOD1 150642Z 14005KT 19/17 A2989 RMK A01 T01920166  RH  085%=      5-min Rain = 0
KOD1 150643Z 14005KT 19/17 A2989 RMK A01 T01920166  RH  085%=      5-min Rain = 0
KOD1 150644Z 14006KT 19/17 A2989 RMK A01 T01920166  RH  085%=      5-min Rain = 0
KOD1 150645Z 14006KT 19/17 A2989 RMK A01 T01920166  RH  085%=      5-min Rain = 0
KOD1 150646Z 15007KT 19/17 A2989 RMK A01 T01920167  RH  085%=      5-min Rain = 0
KOD1 150647Z 15007KT 19/17 A2989 RMK A01 T01920167  RH  085%=      5-min Rain = 0
KOD1 150648Z 15006KT 19/17 A2989 RMK A01 T01920167  RH  085%=      5-min Rain = 0
KOD1 150649Z 15005KT 19/17 A2989 RMK A01 T01920167  RH  085%=      5-min Rain = 0
KOD1 150650Z 16005KT 19/17 A2989 RMK A01 T01920167  RH  085%=      5-min Rain = 0
KOD1 150651Z 15005KT 19/17 A2989 RMK A01 T01920167  RH  085%=      5-min Rain = 0
KOD1 150652Z 15004KT 19/17 A2989 RMK A01 T01920167  RH  085%=      5-min Rain = 0
KOD1 150653Z 16003KT 19/17 A2989 RMK A01 T01920167  RH  085%=      5-min Rain = 0
KOD1 150654Z 16003KT 19/17 A2989 RMK A01 T01910167  RH  086%=      5-min Rain = 0
KOD1 150655Z 16003KT 19/17 A2989 RMK A01 T01910167  RH  086%=      5-min Rain = 0
KOD1 150656Z 16004KT 19/17 A2989 RMK A01 T01910167  RH  086%=      5-min Rain = 0
KOD1 150657Z 16003KT 19/17 A2989 RMK A01 T01910167  RH  086%=      5-min Rain = 0
KOD1 150658Z 16004KT 19/17 A2989 RMK A01 T01910167  RH  086%=      5-min Rain = 0
KOD1 150659Z 15004KT 19/17 A2989 RMK A01 T01910167  RH  086%=      5-min Rain = 0
KOD1 150700Z 15004KT 19/17 A2989 RMK A01 T01910167  RH  086%=      5-min Rain = 0
KOD1 150701Z 15003KT 19/17 A2989 RMK A01 T01910168  RH  086%=      5-min Rain = 0
KOD1 150702Z 16003KT 19/17 A2989 RMK A01 T01910168  RH  086%=      5-min Rain = 0
KOD1 150703Z 15003KT 19/17 A2989 RMK A01 T01910168  RH  086%=      5-min Rain = 0
KOD1 150704Z 16003KT 19/17 A2989 RMK A01 T01910168  RH  086%=      5-min Rain = 0
KOD1 150705Z 16003KT 19/17 A2989 RMK A01 T01910168  RH  086%=      5-min Rain = 0
KOD1 150706Z 17003KT 19/17 A2989 RMK A01 T01910168  RH  086%=      5-min Rain = 0
KOD1 150707Z 17003KT 19/17 A2989 RMK A01 T01910168  RH  086%=      5-min Rain = 0
KOD1 150708Z 18002KT 19/17 A2989 RMK A01 T01920168  RH  086%=      5-min Rain = 0
KOD1 150709Z 19002KT 19/17 A299 RMK A01 T01910168  RH  086%=      5-min Rain = 0
KOD1 150710Z 20002KT 19/17 A299 RMK A01 T01920169  RH  087%=      5-min Rain = 0
KOD1 150711Z 20002KT 19/17 A299 RMK A01 T01920169  RH  086%=      5-min Rain = 0
KOD1 150712Z 20002KT 19/17 A2989 RMK A01 T01920168  RH  086%=      5-min Rain = 0
KOD1 150713Z 19002KT 19/17 A2989 RMK A01 T01920168  RH  086%=      5-min Rain = 0
KOD1 150714Z 21001KT 19/17 A2989 RMK A01 T01920168  RH  086%=      5-min Rain = 0
KOD1 150715Z 20001KT 19/17 A2989 RMK A01 T01910168  RH  086%=      5-min Rain = 0
KOD1 150716Z 20002KT 19/17 A2989 RMK A01 T01910167  RH  086%=      5-min Rain = 0
KOD1 150717Z 20002KT 19/17 A2989 RMK A01 T01910166  RH  086%=      5-min Rain = 0
KOD1 150718Z 20001KT 19/17 A2989 RMK A01 T01900165  RH  086%=      5-min Rain = 0
KOD1 150719Z 19001KT 19/17 A2989 RMK A01 T01890165  RH  086%=      5-min Rain = 0
KOD1 150720Z 20001KT 19/17 A2989 RMK A01 T01880165  RH  086%=      5-min Rain = 0
KOD1 150721Z 21001KT 19/17 A2989 RMK A01 T01880165  RH  086%=      5-min Rain = 0
KOD1 150722Z 22001KT 19/17 A2989 RMK A01 T01870165  RH  087%=      5-min Rain = 0
KOD1 150723Z 23001KT 19/17 A2989 RMK A01 T01870165  RH  087%=      5-min Rain = 0
KOD1 150724Z 21001KT 19/17 A2989 RMK A01 T01870165  RH  087%=      5-min Rain = 0
KOD1 150725Z 20002KT 19/17 A2989 RMK A01 T01870165  RH  087%=      5-min Rain = 0
KOD1 150726Z 19002KT 19/17 A299 RMK A01 T01870165  RH  087%=      5-min Rain = 0
KOD1 150727Z 19001KT 19/17 A2989 RMK A01 T01860165  RH  087%=      5-min Rain = 0
KOD1 150728Z 19001KT 19/16 A2989 RMK A01 T01860164  RH  087%=      5-min Rain = 0
KOD1 150729Z 18002KT 19/16 A2989 RMK A01 T01860164  RH  087%=      5-min Rain = 0
KOD1 150730Z 18002KT 19/16 A2989 RMK A01 T01860164  RH  087%=      5-min Rain = 0
KOD1 150731Z 17002KT 19/16 A2989 RMK A01 T01850164  RH  087%=      5-min Rain = 0
KOD1 150732Z 16002KT 19/17 A2989 RMK A01 T01850165  RH  088%=      5-min Rain = 0
KOD1 150733Z 15003KT 19/17 A2989 RMK A01 T01860165  RH  088%=      5-min Rain = 0
KOD1 150734Z 15003KT 19/17 A2989 RMK A01 T01860166  RH  088%=      5-min Rain = 0
KOD1 150735Z 15003KT 19/17 A2989 RMK A01 T01860166  RH  088%=      5-min Rain = 0
KOD1 150736Z 16003KT 19/17 A2989 RMK A01 T01860166  RH  088%=      5-min Rain = 0
KOD1 150737Z 16003KT 19/17 A299 RMK A01 T01860167  RH  088%=      5-min Rain = 0
KOD1 150738Z 16003KT 19/17 A299 RMK A01 T01870167  RH  088%=      5-min Rain = 0
KOD1 150739Z 16003KT 19/17 A299 RMK A01 T01870167  RH  088%=      5-min Rain = 0
KOD1 150740Z 17003KT 19/17 A299 RMK A01 T01870167  RH  088%=      5-min Rain = 0
KOD1 150741Z 17002KT 19/17 A299 RMK A01 T01870168  RH  088%=      5-min Rain = 0
KOD1 150742Z 16002KT 19/17 A299 RMK A01 T01870168  RH  089%=      5-min Rain = 0
KOD1 150743Z 16002KT 19/17 A299 RMK A01 T01870168  RH  089%=      5-min Rain = 0
KOD1 150744Z 17002KT 19/17 A299 RMK A01 T01870168  RH  089%=      5-min Rain = 0
KOD1 150745Z 17002KT 19/17 A299 RMK A01 T01880169  RH  089%=      5-min Rain = 0
KOD1 150746Z 17002KT 19/17 A299 RMK A01 T01880169  RH  089%=      5-min Rain = 0
KOD1 150747Z 16002KT 19/17 A299 RMK A01 T01880169  RH  089%=      5-min Rain = 0
KOD1 150748Z 16003KT 19/17 A299 RMK A01 T01880169  RH  089%=      5-min Rain = 0
KOD1 150749Z 16003KT 19/17 A299 RMK A01 T01880170  RH  089%=      5-min Rain = 0
KOD1 150750Z 16003KT 19/17 A299 RMK A01 T01890170  RH  089%=      5-min Rain = 0
KOD1 150751Z 16003KT 19/17 A2989 RMK A01 T01890170  RH  089%=      5-min Rain = 0
KOD1 150752Z 16003KT 19/17 A2989 RMK A01 T01890169  RH  089%=      5-min Rain = 0
KOD1 150753Z 16003KT 19/17 A2989 RMK A01 T01890170  RH  089%=      5-min Rain = 0
KOD1 150754Z 16002KT 19/17 A2989 RMK A01 T01890170  RH  089%=      5-min Rain = 0
KOD1 150755Z 16003KT 19/17 A2989 RMK A01 T01890169  RH  088%=      5-min Rain = 0
KOD1 150756Z 16003KT 19/17 A2989 RMK A01 T01890169  RH  088%=      5-min Rain = 0
KOD1 150757Z 15003KT 19/17 A2989 RMK A01 T01880169  RH  089%=      5-min Rain = 0
KOD1 150758Z 14004KT 19/17 A2989 RMK A01 T01880169  RH  089%=      5-min Rain = 0
KOD1 150759Z 15005KT 19/17 A2989 RMK A01 T01880169  RH  089%=      5-min Rain = 0
KOD1 150800Z 14005KT 19/17 A2989 RMK A01 T01880169  RH  089%=      5-min Rain = 0
KOD1 150801Z 14006KT 19/17 A2989 RMK A01 T01870169  RH  089%=      5-min Rain = 0
KOD1 150802Z 15007KT 19/17 A2988 RMK A01 T01870169  RH  089%=      5-min Rain = 0
KOD1 150803Z 15007KT 19/17 A2988 RMK A01 T01880170  RH  089%=      5-min Rain = 0
KOD1 150804Z 14007KT 19/17 A2988 RMK A01 T01880170  RH  089%=      5-min Rain = 0
KOD1 150805Z 15007KT 19/17 A2988 RMK A01 T01880170  RH  089%=      5-min Rain = 0
KOD1 150806Z 15007KT 19/17 A2988 RMK A01 T01880170  RH  089%=      5-min Rain = 0
KOD1 150807Z 15007KT 19/17 A2988 RMK A01 T01880171  RH  089%=      5-min Rain = 0
KOD1 150808Z 15006KT 19/17 A2988 RMK A01 T01890171  RH  089%=      5-min Rain = 0
KOD1 150809Z 15006KT 19/17 A2988 RMK A01 T01890171  RH  090%=      5-min Rain = 0
KOD1 150810Z 15006KT 19/17 A2988 RMK A01 T01890171  RH  089%=      5-min Rain = 0
KOD1 150811Z 15006KT 19/17 A2988 RMK A01 T01890171  RH  089%=      5-min Rain = 0
KOD1 150812Z 15006KT 19/17 A2988 RMK A01 T01890171  RH  089%=      5-min Rain = 0
KOD1 150813Z 15007KT 19/17 A2988 RMK A01 T01890171  RH  089%=      5-min Rain = 0
KOD1 150814Z 15007KT 19/17 A2987 RMK A01 T01890172  RH  090%=      5-min Rain = 0
KOD1 150815Z 15007KT 19/17 A2987 RMK A01 T01890172  RH  090%=      5-min Rain = 0
KOD1 150816Z 15007KT 19/17 A2987 RMK A01 T01900172  RH  090%=      5-min Rain = 0
KOD1 150817Z 15007KT 19/17 A2987 RMK A01 T01900172  RH  090%=      5-min Rain = 0
KOD1 150818Z 15008KT 19/17 A2987 RMK A01 T01900172  RH  089%=      5-min Rain = 0
KOD1 150819Z 14007KT 19/17 A2987 RMK A01 T01910172  RH  089%=      5-min Rain = 0
KOD1 150820Z 14007KT 19/17 A2987 RMK A01 T01910172  RH  089%=      5-min Rain = 0
KOD1 150821Z 14007KT 19/17 A2987 RMK A01 T01910172  RH  089%=      5-min Rain = 0
KOD1 150822Z 14008KT 19/17 A2987 RMK A01 T01910173  RH  089%=      5-min Rain = 0
KOD1 150823Z 14009KT 19/17 A2987 RMK A01 T01920173  RH  089%=      5-min Rain = 0
KOD1 150824Z 14009KT 19/17 A2987 RMK A01 T01930174  RH  089%=      5-min Rain = 0
KOD1 150825Z 14009KT 19/17 A2987 RMK A01 T01940174  RH  088%=      5-min Rain = 0
KOD1 150826Z 14007KT 19/17 A2987 RMK A01 T01940173  RH  088%=      5-min Rain = 0
KOD1 150827Z 14008KT 20/17 A2987 RMK A01 T01950174  RH  088%=      5-min Rain = 0
KOD1 150828Z 14008KT 20/17 A2987 RMK A01 T01950174  RH  087%=      5-min Rain = 0
KOD1 150829Z 14009KT 20/17 A2987 RMK A01 T01960174  RH  087%=      5-min Rain = 0
KOD1 150830Z 14009KT 20/17 A2987 RMK A01 T01960174  RH  087%=      5-min Rain = 0
KOD1 150831Z 14008KT 20/17 A2987 RMK A01 T01960173  RH  087%=      5-min Rain = 0
KOD1 150832Z 14008KT 20/17 A2987 RMK A01 T01960173  RH  087%=      5-min Rain = 0
KOD1 150833Z 13009KT 20/17 A2987 RMK A01 T01960173  RH  087%=      5-min Rain = 0
KOD1 150834Z 13008KT 20/17 A2987 RMK A01 T01950174  RH  087%=      5-min Rain = 0
KOD1 150835Z 13009KT 20/17 A2987 RMK A01 T01950174  RH  087%=      5-min Rain = 0
KOD1 150836Z 13009KT 20/17 A2987 RMK A01 T01950174  RH  087%=      5-min Rain = 0
KOD1 150837Z 13009KT 20/17 A2987 RMK A01 T01950173  RH  087%=      5-min Rain = 0
KOD1 150838Z 13009KT 20/17 A2987 RMK A01 T01950174  RH  087%=      5-min Rain = 0
KOD1 150839Z 13010KT 20/17 A2987 RMK A01 T01950174  RH  088%=      5-min Rain = 0
KOD1 150840Z 13009KT 20/17 A2987 RMK A01 T01950174  RH  087%=      5-min Rain = 0
KOD1 150841Z 13008KT 20/17 A2987 RMK A01 T01950173  RH  087%=      5-min Rain = 0
KOD1 150842Z 13008KT 20/17 A2987 RMK A01 T01950174  RH  087%=      5-min Rain = 0
KOD1 150843Z 13008KT 20/17 A2987 RMK A01 T01950174  RH  087%=      5-min Rain = 0
KOD1 150844Z 14009KT 20/17 A2987 RMK A01 T01960174  RH  087%=      5-min Rain = 0
KOD1 150845Z 14008KT 20/17 A2987 RMK A01 T01960174  RH  087%=      5-min Rain = 0
KOD1 150846Z 14008KT 20/17 A2987 RMK A01 T01960174  RH  087%=      5-min Rain = 0
KOD1 150847Z 14008KT 20/17 A2987 RMK A01 T01960174  RH  087%=      5-min Rain = 0
KOD1 150848Z 14007KT 20/17 A2987 RMK A01 T01960174  RH  087%=      5-min Rain = 0
KOD1 150849Z 13008KT 20/17 A2987 RMK A01 T01950174  RH  087%=      5-min Rain = 0
KOD1 150850Z 13009KT 20/17 A2987 RMK A01 T01950174  RH  087%=      5-min Rain = 0
KOD1 150851Z 14009KT 20/17 A2987 RMK A01 T01950174  RH  088%=      5-min Rain = 0
KOD1 150852Z 14008KT 20/17 A2987 RMK A01 T01950174  RH  088%=      5-min Rain = 0
KOD1 150853Z 14008KT 20/17 A2987 RMK A01 T01950174  RH  088%=      5-min Rain = 0
KOD1 150854Z 13008KT 20/17 A2987 RMK A01 T01950174  RH  088%=      5-min Rain = 0
KOD1 150855Z 13008KT 20/17 A2987 RMK A01 T01950174  RH  088%=      5-min Rain = 0
KOD1 150856Z 13008KT 19/17 A2987 RMK A01 T01940174  RH  088%=      5-min Rain = 0
KOD1 150857Z 13008KT 19/17 A2987 RMK A01 T01940173  RH  088%=      5-min Rain = 0
KOD1 150858Z 13008KT 19/17 A2987 RMK A01 T01940174  RH  088%=      5-min Rain = 0
KOD1 150859Z 13008KT 19/17 A2987 RMK A01 T01940174  RH  088%=      5-min Rain = 0
KOD1 150900Z 12010KT 19/17 A2986 RMK A01 T01940174  RH  088%=      5-min Rain = 0
KOD1 150901Z 12009KT 19/17 A2986 RMK A01 T01940174  RH  088%=      5-min Rain = 0
KOD1 150902Z 13008KT 19/17 A2987 RMK A01 T01940174  RH  088%=      5-min Rain = 0
KOD1 150903Z 13008KT 19/17 A2987 RMK A01 T01940174  RH  088%=      5-min Rain = 0
KOD1 150904Z 13007KT 19/17 A2987 RMK A01 T01940174  RH  088%=      5-min Rain = 0
KOD1 150905Z 13007KT 20/17 A2987 RMK A01 T01950174  RH  088%=      5-min Rain = 0
KOD1 150906Z 13007KT 19/17 A2987 RMK A01 T01940173  RH  088%=      5-min Rain = 0
KOD1 150907Z 13008KT 19/17 A2987 RMK A01 T01940173  RH  088%=      5-min Rain = 0
KOD1 150908Z 13009KT 19/17 A2987 RMK A01 T01940173  RH  088%=      5-min Rain = 0
KOD1 150909Z 13008KT 19/17 A2987 RMK A01 T01940173  RH  088%=      5-min Rain = 0
KOD1 150910Z 13007KT 19/17 A2988 RMK A01 T01940174  RH  088%=      5-min Rain = 0
KOD1 150911Z 14007KT 19/17 A2988 RMK A01 T01940174  RH  088%=      5-min Rain = 0
KOD1 150912Z 14007KT 19/17 A2988 RMK A01 T01940174  RH  088%=      5-min Rain = 0
KOD1 150913Z 13007KT 19/17 A2988 RMK A01 T01940173  RH  088%=      5-min Rain = 0
KOD1 150914Z 14006KT 19/17 A2988 RMK A01 T01940173  RH  088%=      5-min Rain = 0
KOD1 150915Z 14006KT 19/17 A2988 RMK A01 T01940173  RH  088%=      5-min Rain = 0
KOD1 150916Z 14006KT 19/17 A2988 RMK A01 T01940173  RH  088%=      5-min Rain = 0
KOD1 150917Z 14006KT 19/17 A2989 RMK A01 T01930173  RH  088%=      5-min Rain = 0
KOD1 150918Z 15006KT 19/17 A2989 RMK A01 T01930173  RH  088%=      5-min Rain = 0
KOD1 150919Z 15006KT 19/17 A2989 RMK A01 T01930172  RH  088%=      5-min Rain = 0
KOD1 150920Z 15005KT 19/17 A2989 RMK A01 T01930172  RH  088%=      5-min Rain = 0
KOD1 150921Z 15005KT 19/17 A2989 RMK A01 T01920172  RH  088%=      5-min Rain = 0
KOD1 150922Z 14005KT 19/17 A2989 RMK A01 T01920172  RH  088%=      5-min Rain = 0
KOD1 150923Z 13005KT 19/17 A2989 RMK A01 T01910171  RH  088%=      5-min Rain = 0
KOD1 150924Z 13005KT 19/17 A2989 RMK A01 T01910171  RH  088%=      5-min Rain = 0
KOD1 150925Z 13005KT 19/17 A2989 RMK A01 T01900171  RH  089%=      5-min Rain = 0
KOD1 150926Z 13004KT 19/17 A2989 RMK A01 T01900172  RH  089%=      5-min Rain = 0
KOD1 150927Z 13005KT 19/17 A2989 RMK A01 T01900172  RH  089%=      5-min Rain = 0
KOD1 150928Z 12004KT 19/17 A2989 RMK A01 T01900173  RH  090%=      5-min Rain = 0
KOD1 150929Z 11004KT 19/17 A299 RMK A01 T01900172  RH  089%=      5-min Rain = 0
KOD1 150930Z 10005KT 19/17 A299 RMK A01 T01900172  RH  089%=      5-min Rain = 0
KOD1 150931Z 09005KT 19/17 A299 RMK A01 T01900172  RH  090%=      5-min Rain = 0
KOD1 150932Z 08006KT 19/17 A299 RMK A01 T01890172  RH  090%=      5-min Rain = 0
KOD1 150933Z 06005KT 19/17 A299 RMK A01 T01880170  RH  089%=      5-min Rain = 0
KOD1 150934Z 05006KT 19/17 A299 RMK A01 T01880170  RH  090%=      5-min Rain = 0
KOD1 150935Z 05007KT 19/17 A2991 RMK A01 T01870170  RH  090%=      5-min Rain = 0
KOD1 150936Z 04007KT 19/17 A2991 RMK A01 T01860170  RH  090%=      5-min Rain = 0
KOD1 150937Z 03008KT 19/17 A2991 RMK A01 T01860170  RH  091%=      5-min Rain = 0
KOD1 150938Z 03008KT 19/17 A2992 RMK A01 T01850170  RH  091%=      5-min Rain = 0
KOD1 150939Z 03009KT 18/17 A2992 RMK A01 T01840170  RH  091%=      5-min Rain = 0
KOD1 150940Z 03009KT 18/17 A2992 RMK A01 T01840171  RH  092%=      5-min Rain = 0
KOD1 150941Z 03009KT 18/17 A2992 RMK A01 T01840172  RH  092%=      5-min Rain = 0
KOD1 150942Z 03008KT 18/17 A2992 RMK A01 T01840172  RH  093%=      5-min Rain = 0
KOD1 150943Z 03007KT 18/17 A2992 RMK A01 T01840172  RH  093%=      5-min Rain = 0
KOD1 150944Z 03007KT 18/17 A2992 RMK A01 T01830172  RH  093%=      5-min Rain = 0
KOD1 150945Z 03007KT 18/17 A2992 RMK A01 T01830172  RH  093%=      5-min Rain = 0
KOD1 150946Z 03007KT 18/17 A2992 RMK A01 T01830172  RH  093%=      5-min Rain = 0
KOD1 150947Z 03007KT 18/17 A2992 RMK A01 T01830172  RH  093%=      5-min Rain = 0
KOD1 150948Z 04006KT 18/17 A2992 RMK A01 T01820172  RH  094%=      5-min Rain = 0
KOD1 150949Z 04006KT 18/17 A2992 RMK A01 T01820171  RH  094%=      5-min Rain = 0
KOD1 150950Z 04006KT 18/17 A2992 RMK A01 T01810171  RH  094%=      5-min Rain = 0
KOD1 150951Z 05005KT 18/17 A2992 RMK A01 T01810171  RH  094%=      5-min Rain = 0
KOD1 150952Z 05004KT 18/17 A2992 RMK A01 T01810171  RH  094%=      5-min Rain = 0
KOD1 150953Z 05003KT 18/17 A2992 RMK A01 T01800171  RH  094%=      5-min Rain = 0
KOD1 150954Z 05003KT 18/17 A2992 RMK A01 T01800170  RH  094%=      5-min Rain = 0
KOD1 150955Z 05003KT 18/17 A2992 RMK A01 T01800170  RH  094%=      5-min Rain = 0
KOD1 150956Z 05003KT 18/17 A2992 RMK A01 T01790169  RH  094%=      5-min Rain = 0
KOD1 150957Z 05003KT 18/17 A2992 RMK A01 T01790169  RH  094%=      5-min Rain = 0
KOD1 150958Z 05002KT 18/17 A2992 RMK A01 T01780169  RH  094%=      5-min Rain = 0
KOD1 150959Z 05002KT 18/17 A2992 RMK A01 T01780168  RH  094%=      5-min Rain = 0
KOD1 151000Z 05002KT 18/17 A2992 RMK A01 T01780168  RH  094%=      5-min Rain = 0
KOD1 151001Z 05002KT 18/17 A2992 RMK A01 T01780168  RH  094%=      5-min Rain = 0
KOD1 151002Z 05002KT 18/17 A2992 RMK A01 T01780168  RH  094%=      5-min Rain = 0
KOD1 151003Z 06002KT 18/17 A2992 RMK A01 T01780168  RH  094%=      5-min Rain = 0
KOD1 151004Z 06003KT 18/17 A2992 RMK A01 T01770168  RH  094%=      5-min Rain = 0
KOD1 151005Z 06004KT 18/17 A2992 RMK A01 T01770168  RH  094%=      5-min Rain = 0
KOD1 151006Z 06004KT 18/17 A2992 RMK A01 T01770168  RH  095%=      5-min Rain = 0
KOD1 151007Z 06004KT 18/17 A2992 RMK A01 T01760167  RH  094%=      5-min Rain = 0
KOD1 151008Z 07004KT 18/17 A2992 RMK A01 T01760167  RH  094%=      5-min Rain = 0
KOD1 151009Z 08005KT 18/17 A2992 RMK A01 T01760168  RH  095%=      5-min Rain = 0
KOD1 151010Z 07006KT 18/17 A2992 RMK A01 T01760169  RH  095%=      5-min Rain = 0
KOD1 151011Z 07005KT 18/17 A2992 RMK A01 T01770169  RH  095%=      5-min Rain = 0
KOD1 151012Z 08006KT 18/17 A2992 RMK A01 T01770170  RH  096%=      5-min Rain = 0
KOD1 151013Z 08006KT 18/17 A2992 RMK A01 T01780171  RH  096%=      5-min Rain = 0
KOD1 151014Z 07005KT 18/17 A2992 RMK A01 T01780171  RH  095%=      5-min Rain = 0
KOD1 151015Z 06004KT 18/17 A2992 RMK A01 T01780170  RH  095%=      5-min Rain = 0
KOD1 151016Z 07004KT 18/17 A2992 RMK A01 T01780171  RH  095%=      5-min Rain = 0
KOD1 151017Z 06004KT 18/17 A2992 RMK A01 T01780171  RH  096%=      5-min Rain = 0
KOD1 151018Z 06004KT 18/17 A2992 RMK A01 T01780171  RH  096%=      5-min Rain = 0
KOD1 151019Z 05004KT 18/17 A2992 RMK A01 T01780171  RH  096%=      5-min Rain = 0
KOD1 151020Z 06004KT 18/17 A2992 RMK A01 T01780170  RH  095%=      5-min Rain = 0
KOD1 151021Z 05004KT 18/17 A2992 RMK A01 T01770170  RH  095%=      5-min Rain = 0
KOD1 151022Z 04004KT 18/17 A2992 RMK A01 T01770169  RH  095%=      5-min Rain = 0
KOD1 151023Z 03004KT 18/17 A2992 RMK A01 T01760168  RH  095%=      5-min Rain = 0
KOD1 151024Z 03004KT 18/17 A2992 RMK A01 T01760168  RH  095%=      5-min Rain = 0
KOD1 151025Z 02005KT 18/17 A2992 RMK A01 T01750168  RH  095%=      5-min Rain = 0
KOD1 151026Z 03005KT 18/17 A2992 RMK A01 T01750168  RH  095%=      5-min Rain = 0
KOD1 151027Z 03005KT 18/17 A2992 RMK A01 T01750167  RH  095%=      5-min Rain = 0
KOD1 151028Z 03005KT 17/17 A2992 RMK A01 T01740167  RH  095%=      5-min Rain = 0
KOD1 151029Z 03004KT 17/17 A2993 RMK A01 T01740166  RH  095%=      5-min Rain = 0
KOD1 151030Z 03004KT 17/17 A2993 RMK A01 T01730166  RH  095%=      5-min Rain = 0
KOD1 151031Z 03004KT 17/17 A2993 RMK A01 T01730166  RH  095%=      5-min Rain = 0
KOD1 151032Z 03004KT 17/17 A2993 RMK A01 T01730166  RH  095%=      5-min Rain = 0
KOD1 151033Z 03005KT 17/17 A2993 RMK A01 T01720165  RH  096%=      5-min Rain = 0
KOD1 151034Z 04005KT 17/17 A2993 RMK A01 T01720165  RH  095%=      5-min Rain = 0
KOD1 151035Z 04005KT 17/16 A2993 RMK A01 T01710164  RH  095%=      5-min Rain = 0
KOD1 151036Z 04006KT 17/16 A2993 RMK A01 T01710163  RH  095%=      5-min Rain = 0
KOD1 151037Z 04006KT 17/16 A2994 RMK A01 T01700163  RH  096%=      5-min Rain = 0
KOD1 151038Z 05007KT 17/16 A2994 RMK A01 T01700164  RH  096%=      5-min Rain = 0
KOD1 151039Z 05007KT 17/16 A2994 RMK A01 T01700164  RH  096%=      5-min Rain = 0
KOD1 151040Z 05007KT 17/16 A2994 RMK A01 T01710164  RH  096%=      5-min Rain = 0
KOD1 151041Z 05007KT 17/17 A2994 RMK A01 T01710165  RH  096%=      5-min Rain = 0
KOD1 151042Z 06008KT 17/17 A2993 RMK A01 T01720167  RH  097%=      5-min Rain = 0
KOD1 151043Z 06007KT 17/17 A2993 RMK A01 T01730168  RH  097%=      5-min Rain = 0
KOD1 151044Z 06007KT 18/17 A2993 RMK A01 T01750170  RH  097%=      5-min Rain = 0
KOD1 151045Z 06007KT 18/17 A2993 RMK A01 T01750171  RH  097%=      5-min Rain = 0
KOD1 151046Z 06007KT 18/17 A2993 RMK A01 T01760172  RH  097%=      5-min Rain = 0
KOD1 151047Z 07006KT 18/17 A2993 RMK A01 T01770173  RH  097%=      5-min Rain = 0
KOD1 151048Z 07005KT 18/17 A2993 RMK A01 T01780173  RH  097%=      5-min Rain = 0
KOD1 151049Z 07005KT 18/17 A2993 RMK A01 T01780174  RH  097%=      5-min Rain = 0
KOD1 151050Z 07006KT 18/17 A2993 RMK A01 T01780174  RH  097%=      5-min Rain = 0
KOD1 151051Z 07006KT 18/17 A2993 RMK A01 T01790174  RH  097%=      5-min Rain = 0
KOD1 151052Z 07006KT 18/18 A2993 RMK A01 T01790175  RH  097%=      5-min Rain = 0
KOD1 151053Z 07007KT 18/18 A2993 RMK A01 T01800175  RH  097%=      5-min Rain = 0
KOD1 151054Z 07007KT 18/18 A2993 RMK A01 T01800176  RH  097%=      5-min Rain = 0
KOD1 151055Z 07007KT 18/18 A2993 RMK A01 T01800176  RH  097%=      5-min Rain = 0
KOD1 151056Z 07007KT 18/18 A2993 RMK A01 T01810176  RH  097%=      5-min Rain = 0
KOD1 151057Z 08007KT 18/18 A2993 RMK A01 T01810176  RH  097%=      5-min Rain = 0
KOD1 151058Z 08008KT 18/18 A2993 RMK A01 T01810176  RH  097%=      5-min Rain = 0
KOD1 151059Z 08008KT 18/18 A2993 RMK A01 T01810176  RH  097%=      5-min Rain = 0
KOD1 151100Z 08008KT 18/18 A2993 RMK A01 T01810176  RH  097%=      5-min Rain = 0
KOD1 151101Z 08008KT 18/18 A2992 RMK A01 T01810175  RH  096%=      5-min Rain = 0
KOD1 151102Z 08007KT 18/18 A2992 RMK A01 T01810175  RH  096%=      5-min Rain = 0
KOD1 151103Z 08008KT 18/18 A2992 RMK A01 T01810175  RH  096%=      5-min Rain = 0
KOD1 151104Z 08008KT 18/18 A2993 RMK A01 T01810175  RH  096%=      5-min Rain = 0
KOD1 151105Z 08008KT 18/18 A2993 RMK A01 T01810175  RH  096%=      5-min Rain = 0
KOD1 151106Z 08008KT 18/18 A2993 RMK A01 T01810175  RH  096%=      5-min Rain = 0
KOD1 151107Z 08008KT 18/18 A2993 RMK A01 T01810175  RH  096%=      5-min Rain = 0
KOD1 151108Z 08009KT 18/18 A2993 RMK A01 T01820176  RH  096%=      5-min Rain = 0
KOD1 151109Z 09008KT 18/18 A2992 RMK A01 T01820176  RH  096%=      5-min Rain = 0
KOD1 151110Z 09008KT 18/18 A2992 RMK A01 T01820177  RH  096%=      5-min Rain = 0
KOD1 151111Z 09009KT 18/18 A2992 RMK A01 T01830178  RH  097%=      5-min Rain = 0
KOD1 151112Z 09010KT 18/18 A2992 RMK A01 T01840179  RH  097%=      5-min Rain = 0
KOD1 151113Z 09009KT 19/18 A2992 RMK A01 T01850180  RH  096%=      5-min Rain = 0
KOD1 151114Z 09009KT 19/18 A2992 RMK A01 T01860180  RH  096%=      5-min Rain = 0
KOD1 151115Z 10008KT 19/18 A2992 RMK A01 T01870180  RH  096%=      5-min Rain = 0
KOD1 151116Z 11008KT 19/18 A2992 RMK A01 T01870181  RH  096%=      5-min Rain = 0
KOD1 151117Z 10009KT 19/18 A2992 RMK A01 T01870181  RH  096%=      5-min Rain = 0
KOD1 151118Z 10009KT 19/18 A2992 RMK A01 T01880181  RH  096%=      5-min Rain = 0
KOD1 151119Z 11009KT 19/18 A2992 RMK A01 T01880180  RH  095%=      5-min Rain = 0
KOD1 151120Z 10010KT 19/18 A2992 RMK A01 T01880180  RH  095%=      5-min Rain = 0
KOD1 151121Z 10009KT 19/18 A2992 RMK A01 T01890181  RH  095%=      5-min Rain = 0
KOD1 151122Z 10009KT 19/18 A2992 RMK A01 T01890181  RH  095%=      5-min Rain = 0
KOD1 151123Z 10010KT 19/18 A2992 RMK A01 T01890180  RH  095%=      5-min Rain = 0
KOD1 151124Z 10009KT 19/18 A2992 RMK A01 T01890181  RH  095%=      5-min Rain = 0
KOD1 151125Z 09008KT 19/18 A2992 RMK A01 T01890181  RH  095%=      5-min Rain = 0
KOD1 151126Z 09008KT 19/18 A2992 RMK A01 T01890181  RH  095%=      5-min Rain = 0
KOD1 151127Z 09009KT 19/18 A2992 RMK A01 T01890181  RH  095%=      5-min Rain = 0
KOD1 151128Z 10010KT 19/18 A2992 RMK A01 T01900181  RH  095%=      5-min Rain = 0
KOD1 151129Z 09008KT 19/18 A2992 RMK A01 T01900181  RH  094%=      5-min Rain = 0
KOD1 151130Z 10008KT 19/18 A2992 RMK A01 T01900180  RH  094%=      5-min Rain = 0
KOD1 151131Z 10009KT 19/18 A2992 RMK A01 T01900180  RH  094%=      5-min Rain = 0
KOD1 151132Z 10009KT 19/18 A2992 RMK A01 T01900180  RH  094%=      5-min Rain = 0
KOD1 151133Z 10009KT 19/18 A2992 RMK A01 T01900180  RH  094%=      5-min Rain = 0
KOD1 151134Z 10008KT 19/18 A2992 RMK A01 T01900180  RH  094%=      5-min Rain = 0
KOD1 151135Z 10010KT 19/18 A2992 RMK A01 T01900179  RH  093%=      5-min Rain = 0
KOD1 151136Z 10010KT 19/18 A2992 RMK A01 T01900179  RH  093%=      5-min Rain = 0
KOD1 151137Z 10010KT 19/18 A2992 RMK A01 T01910179  RH  093%=      5-min Rain = 0
KOD1 151138Z 11012KT 19/18 A2992 RMK A01 T01910179  RH  093%=      5-min Rain = 0
KOD1 151139Z 10010KT 19/18 A2992 RMK A01 T01920179  RH  092%=      5-min Rain = 0
KOD1 151140Z 10010KT 19/18 A2992 RMK A01 T01920178  RH  092%=      5-min Rain = 0
KOD1 151141Z 10010KT 19/18 A2992 RMK A01 T01920178  RH  092%=      5-min Rain = 0
KOD1 151142Z 10009KT 19/18 A2992 RMK A01 T01920178  RH  091%=      5-min Rain = 0
KOD1 151143Z 09009KT 19/18 A2993 RMK A01 T01920177  RH  091%=      5-min Rain = 0
KOD1 151144Z 10009KT 19/18 A2993 RMK A01 T01920177  RH  091%=      5-min Rain = 0
KOD1 151145Z 09008KT 19/18 A2993 RMK A01 T01920177  RH  091%=      5-min Rain = 0
KOD1 151146Z 09009KT 19/18 A2993 RMK A01 T01910177  RH  091%=      5-min Rain = 0
KOD1 151147Z 10009KT 19/18 A2993 RMK A01 T01910177  RH  091%=      5-min Rain = 0
KOD1 151148Z 10009KT 19/18 A2993 RMK A01 T01910177  RH  091%=      5-min Rain = 0
KOD1 151149Z 09010KT 19/18 A2993 RMK A01 T01910177  RH  091%=      5-min Rain = 0
KOD1 151150Z 09009KT 19/18 A2993 RMK A01 T01920177  RH  091%=      5-min Rain = 0
KOD1 151151Z 09009KT 19/18 A2993 RMK A01 T01920177  RH  091%=      5-min Rain = 0
KOD1 151152Z 10009KT 19/18 A2993 RMK A01 T01920177  RH  091%=      5-min Rain = 0
KOD1 151153Z 10008KT 19/18 A2993 RMK A01 T01920177  RH  091%=      5-min Rain = 0
KOD1 151154Z 10008KT 19/18 A2993 RMK A01 T01920177  RH  091%=      5-min Rain = 0
KOD1 151155Z 11009KT 19/18 A2993 RMK A01 T01920177  RH  091%=      5-min Rain = 0
KOD1 151156Z 10008KT 19/18 A2993 RMK A01 T01920177  RH  091%=      5-min Rain = 0
KOD1 151157Z 11010KT 19/18 A2993 RMK A01 T01920177  RH  091%=      5-min Rain = 0
KOD1 151158Z 10009KT 19/18 A2993 RMK A01 T01930177  RH  091%=      5-min Rain = 0
KOD1 151159Z 10009KT 19/18 A2993 RMK A01 T01930177  RH  091%=      5-min Rain = 0
KOD1 151200Z 10010KT 19/18 A2993 RMK A01 T01930177  RH  091%=      5-min Rain = 0
KOD1 151201Z 10010KT 19/18 A2993 RMK A01 T01930177  RH  090%=      5-min Rain = 0
KOD1 151202Z 11011KT 19/18 A2993 RMK A01 T01930177  RH  091%=      5-min Rain = 0
KOD1 151203Z 11010KT 19/18 A2993 RMK A01 T01940178  RH  090%=      5-min Rain = 0
KOD1 151204Z 10010KT 19/18 A2994 RMK A01 T01940178  RH  090%=      5-min Rain = 0
KOD1 151205Z 10007KT 19/18 A2994 RMK A01 T01940178  RH  090%=      5-min Rain = 0
KOD1 151206Z 10008KT 19/18 A2994 RMK A01 T01940178  RH  090%=      5-min Rain = 0
KOD1 151207Z 10008KT 19/18 A2994 RMK A01 T01940178  RH  090%=      5-min Rain = 0
KOD1 151208Z 10008KT 19/18 A2994 RMK A01 T01940178  RH  091%=      5-min Rain = 0
KOD1 151209Z 09009KT 19/18 A2994 RMK A01 T01940178  RH  091%=      5-min Rain = 0
KOD1 151210Z 10008KT 19/18 A2994 RMK A01 T01940178  RH  091%=      5-min Rain = 0
KOD1 151211Z 10009KT 19/18 A2994 RMK A01 T01940178  RH  091%=      5-min Rain = 0
KOD1 151212Z 10009KT 19/18 A2994 RMK A01 T01940178  RH  090%=      5-min Rain = 0
KOD1 151213Z 10008KT 19/18 A2994 RMK A01 T01940178  RH  090%=      5-min Rain = 0
KOD1 151214Z 11009KT 20/18 A2995 RMK A01 T01950178  RH  090%=      5-min Rain = 0
KOD1 151215Z 11010KT 20/18 A2995 RMK A01 T01950178  RH  090%=      5-min Rain = 0
KOD1 151216Z 11010KT 20/18 A2995 RMK A01 T01950178  RH  090%=      5-min Rain = 0
KOD1 151217Z 11010KT 20/18 A2995 RMK A01 T01950179  RH  090%=      5-min Rain = 0
KOD1 151218Z 11010KT 20/18 A2995 RMK A01 T01950179  RH  090%=      5-min Rain = 0
KOD1 151219Z 11012KT 20/18 A2995 RMK A01 T01950179  RH  090%=      5-min Rain = 0
KOD1 151220Z 11010KT 20/18 A2994 RMK A01 T01950179  RH  090%=      5-min Rain = 0
KOD1 151221Z 11010KT 20/18 A2995 RMK A01 T01960179  RH  090%=      5-min Rain = 0
KOD1 151222Z 11011KT 20/18 A2995 RMK A01 T01960179  RH  090%=      5-min Rain = 0
KOD1 151223Z 11010KT 20/18 A2995 RMK A01 T01960179  RH  090%=      5-min Rain = 0
KOD1 151224Z 10010KT 20/18 A2995 RMK A01 T01960180  RH  090%=      5-min Rain = 0
KOD1 151225Z 11009KT 20/18 A2995 RMK A01 T01960180  RH  090%=      5-min Rain = 0
KOD1 151226Z 11011KT 20/18 A2995 RMK A01 T01960180  RH  090%=      5-min Rain = 0
KOD1 151227Z 11009KT 20/18 A2995 RMK A01 T01970180  RH  090%=      5-min Rain = 0
KOD1 151228Z 11010KT 20/18 A2995 RMK A01 T01970181  RH  090%=      5-min Rain = 0
KOD1 151229Z 11011KT 20/18 A2995 RMK A01 T01970181  RH  090%=      5-min Rain = 0
KOD1 151230Z 11010KT 20/18 A2995 RMK A01 T01970181  RH  090%=      5-min Rain = 0
KOD1 151231Z 11009KT 20/18 A2995 RMK A01 T01970181  RH  090%=      5-min Rain = 0
KOD1 151232Z 11009KT 20/18 A2995 RMK A01 T01980181  RH  090%=      5-min Rain = 0
KOD1 151233Z 11012KT 20/18 A2995 RMK A01 T01980181  RH  090%=      5-min Rain = 0
KOD1 151234Z 10010KT 20/18 A2995 RMK A01 T01980181  RH  090%=      5-min Rain = 0
KOD1 151235Z 10010KT 20/18 A2995 RMK A01 T01980182  RH  090%=      5-min Rain = 0
KOD1 151236Z 10011KT 20/18 A2995 RMK A01 T01990182  RH  090%=      5-min Rain = 0
KOD1 151237Z 10009KT 20/18 A2995 RMK A01 T01990182  RH  090%=      5-min Rain = 0
KOD1 151238Z 10009KT 20/18 A2995 RMK A01 T01990182  RH  090%=      5-min Rain = 0
KOD1 151239Z 10010KT 20/18 A2996 RMK A01 T01990182  RH  090%=      5-min Rain = 0
KOD1 151240Z 10011KT 20/18 A2996 RMK A01 T01990182  RH  090%=      5-min Rain = 0
KOD1 151241Z 10010KT 20/18 A2996 RMK A01 T02000183  RH  090%=      5-min Rain = 0
KOD1 151242Z 10012KT 20/18 A2996 RMK A01 T02000183  RH  090%=      5-min Rain = 0
KOD1 151243Z 11011KT 20/18 A2996 RMK A01 T02000183  RH  090%=      5-min Rain = 0
KOD1 151244Z 11011KT 20/18 A2996 RMK A01 T02000183  RH  090%=      5-min Rain = 0
KOD1 151245Z 11011KT 20/18 A2995 RMK A01 T02010183  RH  090%=      5-min Rain = 0
KOD1 151246Z 11010KT 20/18 A2995 RMK A01 T02010184  RH  090%=      5-min Rain = 0
KOD1 151247Z 11012KT 20/18 A2995 RMK A01 T02010183  RH  089%=      5-min Rain = 0
KOD1 151248Z 11012KT 20/18 A2995 RMK A01 T02010183  RH  089%=      5-min Rain = 0
KOD1 151249Z 12010KT 20/18 A2995 RMK A01 T02010183  RH  090%=      5-min Rain = 0
KOD1 151250Z 12010KT 20/18 A2995 RMK A01 T02010184  RH  090%=      5-min Rain = 0
KOD1 151251Z 11010KT 20/18 A2995 RMK A01 T02020184  RH  090%=      5-min Rain = 0
KOD1 151252Z 12009KT 20/18 A2995 RMK A01 T02020184  RH  089%=      5-min Rain = 0
KOD1 151253Z 13008KT 20/19 A2995 RMK A01 T02030185  RH  090%=      5-min Rain = 0
KOD1 151254Z 13009KT 20/19 A2995 RMK A01 T02030185  RH  089%=      5-min Rain = 0
KOD1 151255Z 12009KT 20/19 A2996 RMK A01 T02030185  RH  089%=      5-min Rain = 0
KOD1 151256Z 12010KT 20/19 A2996 RMK A01 T02040185  RH  089%=      5-min Rain = 0
KOD1 151257Z 11010KT 20/19 A2996 RMK A01 T02040185  RH  089%=      5-min Rain = 0
KOD1 151258Z 12010KT 20/19 A2996 RMK A01 T02040185  RH  089%=      5-min Rain = 0
KOD1 151259Z 11008KT 20/19 A2996 RMK A01 T02040186  RH  089%=      5-min Rain = 0
KOD1 151300Z 11009KT 21/19 A2996 RMK A01 T02050187  RH  089%=      5-min Rain = 0
KOD1 151301Z 11009KT 21/19 A2996 RMK A01 T02050186  RH  089%=      5-min Rain = 0
KOD1 151302Z 11009KT 21/19 A2996 RMK A01 T02060187  RH  089%=      5-min Rain = 0
KOD1 151303Z 11009KT 21/19 A2996 RMK A01 T02060186  RH  088%=      5-min Rain = 0
KOD1 151304Z 10009KT 21/19 A2996 RMK A01 T02060187  RH  089%=      5-min Rain = 0
KOD1 151305Z 10009KT 21/19 A2996 RMK A01 T02070188  RH  089%=      5-min Rain = 0
KOD1 151306Z 11010KT 21/19 A2996 RMK A01 T02070187  RH  088%=      5-min Rain = 0
KOD1 151307Z 11010KT 21/19 A2996 RMK A01 T02070187  RH  088%=      5-min Rain = 0
KOD1 151308Z 11010KT 21/19 A2996 RMK A01 T02070187  RH  088%=      5-min Rain = 0
KOD1 151309Z 12008KT 21/19 A2996 RMK A01 T02080189  RH  089%=      5-min Rain = 0
KOD1 151310Z 13010KT 21/19 A2996 RMK A01 T02090188  RH  088%=      5-min Rain = 0
KOD1 151311Z 12012KT 21/19 A2996 RMK A01 T02090187  RH  087%=      5-min Rain = 0
KOD1 151312Z 12010KT 21/19 A2996 RMK A01 T02090188  RH  088%=      5-min Rain = 0
KOD1 151313Z 12010KT 21/19 A2996 RMK A01 T02090189  RH  088%=      5-min Rain = 0
KOD1 151314Z 12010KT 21/19 A2996 RMK A01 T02100188  RH  088%=      5-min Rain = 0
KOD1 151315Z 12009KT 21/19 A2996 RMK A01 T02100188  RH  087%=      5-min Rain = 0
KOD1 151316Z 13009KT 21/19 A2996 RMK A01 T02100189  RH  088%=      5-min Rain = 0
KOD1 151317Z 12009KT 21/19 A2996 RMK A01 T02110190  RH  088%=      5-min Rain = 0
KOD1 151318Z 11010KT 21/19 A2997 RMK A01 T02110190  RH  087%=      5-min Rain = 0
KOD1 151319Z 11012KT 21/19 A2997 RMK A01 T02120189  RH  087%=      5-min Rain = 0
KOD1 151320Z 11012KT 21/19 A2997 RMK A01 T02110189  RH  087%=      5-min Rain = 0
KOD1 151321Z 11011KT 21/19 A2997 RMK A01 T02110189  RH  087%=      5-min Rain = 0
KOD1 151322Z 12011KT 21/19 A2997 RMK A01 T02110189  RH  087%=      5-min Rain = 0
KOD1 151323Z 11011KT 21/19 A2997 RMK A01 T02110189  RH  087%=      5-min Rain = 0
KOD1 151324Z 11009KT 21/19 A2997 RMK A01 T02120190  RH  088%=      5-min Rain = 0
KOD1 151325Z 11010KT 21/19 A2997 RMK A01 T02120190  RH  087%=      5-min Rain = 0
KOD1 151326Z 11009KT 21/19 A2997 RMK A01 T02130191  RH  087%=      5-min Rain = 0
KOD1 151327Z 11009KT 21/19 A2997 RMK A01 T02130190  RH  087%=      5-min Rain = 0
KOD1 151328Z 11009KT 21/19 A2997 RMK A01 T02140191  RH  087%=      5-min Rain = 0
KOD1 151329Z 11009KT 22/19 A2997 RMK A01 T02150192  RH  087%=      5-min Rain = 0
KOD1 151330Z 11011KT 22/19 A2997 RMK A01 T02150191  RH  086%=      5-min Rain = 0
KOD1 151331Z 11010KT 22/19 A2997 RMK A01 T02150191  RH  086%=      5-min Rain = 0
KOD1 151332Z 12011KT 22/19 A2997 RMK A01 T02150191  RH  086%=      5-min Rain = 0
KOD1 151333Z 12011KT 22/19 A2997 RMK A01 T02150191  RH  086%=      5-min Rain = 0
KOD1 151334Z 12009KT 22/19 A2997 RMK A01 T02160192  RH  086%=      5-min Rain = 0
KOD1 151335Z 11009KT 22/19 A2997 RMK A01 T02170194  RH  087%=      5-min Rain = 0
KOD1 151336Z 10010KT 22/19 A2997 RMK A01 T02180192  RH  085%=      5-min Rain = 0
KOD1 151337Z 11011KT 22/19 A2997 RMK A01 T02180192  RH  085%=      5-min Rain = 0
KOD1 151338Z 12010KT 22/19 A2997 RMK A01 T02180192  RH  085%=      5-min Rain = 0
KOD1 151339Z 11007KT 22/19 A2998 RMK A01 T02180194  RH  086%=      5-min Rain = 0
KOD1 151340Z 11008KT 22/20 A2998 RMK A01 T02200195  RH  086%=      5-min Rain = 0
KOD1 151341Z 11009KT 22/19 A2998 RMK A01 T02210194  RH  085%=      5-min Rain = 0
KOD1 151342Z 11009KT 22/19 A2998 RMK A01 T02210194  RH  084%=      5-min Rain = 0
KOD1 151343Z 11011KT 22/19 A2998 RMK A01 T02210193  RH  084%=      5-min Rain = 0
KOD1 151344Z 11009KT 22/19 A2998 RMK A01 T02210193  RH  084%=      5-min Rain = 0
KOD1 151345Z 11008KT 22/20 A2997 RMK A01 T02220195  RH  085%=      5-min Rain = 0
KOD1 151346Z 11009KT 22/19 A2997 RMK A01 T02230193  RH  083%=      5-min Rain = 0
KOD1 151347Z 12010KT 22/19 A2997 RMK A01 T02220193  RH  084%=      5-min Rain = 0
KOD1 151348Z 12008KT 22/20 A2997 RMK A01 T02230195  RH  084%=      5-min Rain = 0
KOD1 151349Z 12010KT 22/19 A2997 RMK A01 T02230193  RH  083%=      5-min Rain = 0
KOD1 151350Z 12010KT 22/19 A2997 RMK A01 T02220193  RH  083%=      5-min Rain = 0
KOD1 151351Z 12009KT 22/19 A2997 RMK A01 T02220194  RH  084%=      5-min Rain = 0
KOD1 151352Z 13009KT 22/19 A2997 RMK A01 T02230194  RH  084%=      5-min Rain = 0
KOD1 151353Z 13008KT 22/19 A2997 RMK A01 T02230194  RH  083%=      5-min Rain = 0
KOD1 151354Z 12007KT 22/20 A2997 RMK A01 T02240195  RH  084%=      5-min Rain = 0
KOD1 151355Z 12010KT 23/20 A2998 RMK A01 T02250195  RH  083%=      5-min Rain = 0
KOD1 151356Z 12008KT 23/20 A2998 RMK A01 T02250195  RH  083%=      5-min Rain = 0
KOD1 151357Z 10008KT 23/20 A2998 RMK A01 T02260196  RH  083%=      5-min Rain = 0
KOD1 151358Z 11010KT 23/20 A2998 RMK A01 T02270197  RH  083%=      5-min Rain = 0
KOD1 151359Z 12011KT 23/20 A2998 RMK A01 T02270195  RH  082%=      5-min Rain = 0
KOD1 151400Z 12007KT 23/20 A2998 RMK A01 T02260195  RH  083%=      5-min Rain = 0
KOD1 151401Z 11007KT 23/20 A2998 RMK A01 T02270197  RH  083%=      5-min Rain = 0
KOD1 151402Z 12009KT 23/20 A2998 RMK A01 T02270195  RH  082%=      5-min Rain = 0
KOD1 151403Z 12008KT 23/19 A2998 RMK A01 T02260194  RH  082%=      5-min Rain = 0
KOD1 151404Z 12007KT 23/20 A2998 RMK A01 T02260196  RH  083%=      5-min Rain = 0
KOD1 151405Z 12007KT 23/20 A2998 RMK A01 T02260196  RH  083%=      5-min Rain = 0
KOD1 151406Z 13007KT 23/20 A2998 RMK A01 T02260197  RH  084%=      5-min Rain = 0
KOD1 151407Z 13008KT 23/20 A2998 RMK A01 T02270197  RH  083%=      5-min Rain = 0
KOD1 151408Z 13008KT 23/20 A2998 RMK A01 T02270196  RH  083%=      5-min Rain = 0
KOD1 151409Z 13007KT 23/20 A2998 RMK A01 T02270195  RH  083%=      5-min Rain = 0
KOD1 151410Z 13007KT 23/20 A2998 RMK A01 T02260195  RH  083%=      5-min Rain = 0
KOD1 151411Z 14007KT 23/20 A2998 RMK A01 T02260196  RH  083%=      5-min Rain = 0
KOD1 151412Z 14007KT 23/20 A2998 RMK A01 T02260195  RH  083%=      5-min Rain = 0
KOD1 151413Z 13006KT 23/19 A2998 RMK A01 T02260194  RH  082%=      5-min Rain = 0
KOD1 151414Z 15005KT 23/20 A2998 RMK A01 T02260196  RH  083%=      5-min Rain = 0
KOD1 151415Z 14005KT 23/20 A2998 RMK A01 T02270196  RH  083%=      5-min Rain = 0
KOD1 151416Z 14007KT 23/20 A2998 RMK A01 T02270195  RH  083%=      5-min Rain = 0
KOD1 151417Z 13006KT 23/20 A2998 RMK A01 T02270196  RH  083%=      5-min Rain = 0
KOD1 151418Z 13004KT 23/19 A2998 RMK A01 T02260194  RH  082%=      5-min Rain = 0
KOD1 151419Z 13005KT 23/20 A2999 RMK A01 T02260196  RH  083%=      5-min Rain = 0
KOD1 151420Z 11005KT 23/20 A2999 RMK A01 T02270197  RH  083%=      5-min Rain = 0
KOD1 151421Z 14004KT 23/20 A2999 RMK A01 T02280198  RH  083%=      5-min Rain = 0
KOD1 151422Z 13004KT 23/20 A2999 RMK A01 T02270196  RH  082%=      5-min Rain = 0
KOD1 151423Z 14003KT 23/20 A2999 RMK A01 T02270195  RH  082%=      5-min Rain = 0
KOD1 151424Z 16003KT 23/20 A2999 RMK A01 T02270196  RH  083%=      5-min Rain = 0
KOD1 151425Z 16004KT 23/20 A2999 RMK A01 T02270197  RH  083%=      5-min Rain = 0
KOD1 151426Z 17004KT 23/20 A2999 RMK A01 T02270196  RH  083%=      5-min Rain = 0
KOD1 151427Z 17004KT 23/20 A2999 RMK A01 T02270196  RH  083%=      5-min Rain = 0
KOD1 151428Z 18003KT 23/20 A2999 RMK A01 T02270196  RH  083%=      5-min Rain = 0
KOD1 151429Z 18003KT 23/20 A2999 RMK A01 T02280197  RH  083%=      5-min Rain = 0
KOD1 151430Z 18004KT 23/20 A2999 RMK A01 T02280196  RH  082%=      5-min Rain = 0
KOD1 151431Z 16004KT 23/20 A2999 RMK A01 T02280197  RH  083%=      5-min Rain = 0
KOD1 151432Z 15004KT 23/20 A2999 RMK A01 T02280197  RH  083%=      5-min Rain = 0
KOD1 151433Z 17004KT 23/20 A2999 RMK A01 T02280196  RH  082%=      5-min Rain = 0
KOD1 151434Z 18004KT 23/20 A2999 RMK A01 T02280196  RH  082%=      5-min Rain = 0
KOD1 151435Z 18004KT 23/20 A2999 RMK A01 T02280196  RH  082%=      5-min Rain = 0
KOD1 151436Z 18003KT 23/20 A2999 RMK A01 T02270196  RH  083%=      5-min Rain = 0
KOD1 151437Z 17004KT 23/20 A2999 RMK A01 T02270197  RH  083%=      5-min Rain = 0
KOD1 151438Z 18004KT 23/20 A2999 RMK A01 T02270197  RH  083%=      5-min Rain = 0
KOD1 151439Z 17004KT 23/20 A2999 RMK A01 T02270197  RH  083%=      5-min Rain = 0
KOD1 151440Z 16005KT 23/20 A2999 RMK A01 T02280198  RH  083%=      5-min Rain = 0
KOD1 151441Z 17004KT 23/20 A2999 RMK A01 T02280197  RH  083%=      5-min Rain = 0
KOD1 151442Z 17003KT 23/20 A2999 RMK A01 T02270196  RH  083%=      5-min Rain = 0
KOD1 151443Z 18001KT 23/20 A2999 RMK A01 T02270197  RH  083%=      5-min Rain = 0
KOD1 151444Z 14001KT 23/20 A2999 RMK A01 T02280198  RH  083%=      5-min Rain = 0
KOD1 151445Z 10002KT 23/20 A2999 RMK A01 T02280198  RH  083%=      5-min Rain = 0
KOD1 151446Z 11003KT 23/20 A2999 RMK A01 T02280198  RH  083%=      5-min Rain = 0
KOD1 151447Z 09002KT 23/20 A30 RMK A01 T02280197  RH  083%=      5-min Rain = 0
KOD1 151448Z 09001KT 23/20 A30 RMK A01 T02290198  RH  083%=      5-min Rain = 0
KOD1 151449Z 09001KT 23/20 A30 RMK A01 T02290198  RH  083%=      5-min Rain = 0
KOD1 151450Z 09002KT 23/20 A30 RMK A01 T02290197  RH  082%=      5-min Rain = 0
KOD1 151451Z 08002KT 23/20 A30 RMK A01 T02290197  RH  082%=      5-min Rain = 0
KOD1 151452Z 09003KT 23/20 A30 RMK A01 T02290197  RH  082%=      5-min Rain = 0
KOD1 151453Z 11002KT 23/20 A30 RMK A01 T02290197  RH  082%=      5-min Rain = 0
KOD1 151454Z 11002KT 23/20 A30 RMK A01 T02290197  RH  082%=      5-min Rain = 0
KOD1 151455Z 13003KT 23/20 A30 RMK A01 T02290198  RH  083%=      5-min Rain = 0
KOD1 151456Z 12003KT 23/20 A30 RMK A01 T02290198  RH  083%=      5-min Rain = 0
KOD1 151457Z 11002KT 23/20 A30 RMK A01 T02290198  RH  083%=      5-min Rain = 0
KOD1 151458Z 11002KT 23/20 A30 RMK A01 T02300199  RH  083%=      5-min Rain = 0
KOD1 151459Z 12002KT 23/20 A30 RMK A01 T02300199  RH  082%=      5-min Rain = 0
KOD1 151500Z 12002KT 23/20 A30 RMK A01 T02300198  RH  082%=      5-min Rain = 0
KOD1 151501Z 11002KT 23/20 A30 RMK A01 T02300199  RH  082%=      5-min Rain = 0
KOD1 151502Z 11004KT 23/20 A30 RMK A01 T02310199  RH  082%=      5-min Rain = 0
KOD1 151503Z 11003KT 23/20 A30 RMK A01 T02310199  RH  082%=      5-min Rain = 0
KOD1 151504Z 11004KT 23/20 A30 RMK A01 T02310200  RH  082%=      5-min Rain = 0
KOD1 151505Z 13004KT 23/20 A30 RMK A01 T02320201  RH  082%=      5-min Rain = 0
KOD1 151506Z 12004KT 23/20 A30 RMK A01 T02330200  RH  082%=      5-min Rain = 0
KOD1 151507Z 13004KT 23/20 A30 RMK A01 T02330199  RH  081%=      5-min Rain = 0
KOD1 151508Z 14005KT 23/20 A30 RMK A01 T02330199  RH  081%=      5-min Rain = 0
KOD1 151509Z 14004KT 23/20 A30 RMK A01 T02330199  RH  081%=      5-min Rain = 0
KOD1 151510Z 14004KT 23/20 A30 RMK A01 T02340198  RH  080%=      5-min Rain = 0
KOD1 151511Z 15004KT 23/20 A30 RMK A01 T02340198  RH  080%=      5-min Rain = 0
KOD1 151512Z 16004KT 23/20 A30 RMK A01 T02340199  RH  081%=      5-min Rain = 0
KOD1 151513Z 16005KT 23/20 A30 RMK A01 T02340199  RH  081%=      5-min Rain = 0
KOD1 151514Z 16005KT 24/20 A2999 RMK A01 T02350199  RH  080%=      5-min Rain = 0
KOD1 151515Z 16004KT 24/20 A2999 RMK A01 T02360200  RH  081%=      5-min Rain = 0
KOD1 151516Z 17005KT 24/20 A2999 RMK A01 T02360200  RH  080%=      5-min Rain = 0
KOD1 151517Z 17005KT 24/20 A2999 RMK A01 T02360199  RH  079%=      5-min Rain = 0
KOD1 151518Z 17004KT 24/20 A2999 RMK A01 T02360199  RH  079%=      5-min Rain = 0
KOD1 151519Z 17005KT 24/20 A2999 RMK A01 T02370201  RH  080%=      5-min Rain = 0
KOD1 151520Z 17004KT 24/20 A2999 RMK A01 T02380200  RH  079%=      5-min Rain = 0
KOD1 151521Z 16004KT 24/20 A2999 RMK A01 T02390201  RH  079%=      5-min Rain = 0
KOD1 151522Z 16005KT 24/20 A2999 RMK A01 T02400200  RH  079%=      5-min Rain = 0
KOD1 151523Z 16005KT 24/20 A2999 RMK A01 T02390199  RH  078%=      5-min Rain = 0
KOD1 151524Z 16005KT 24/20 A2999 RMK A01 T02400200  RH  079%=      5-min Rain = 0
KOD1 151525Z 17005KT 24/20 A2999 RMK A01 T02400200  RH  078%=      5-min Rain = 0
KOD1 151526Z 18004KT 24/20 A2999 RMK A01 T02410199  RH  077%=      5-min Rain = 0
KOD1 151527Z 17003KT 24/20 A2999 RMK A01 T02400200  RH  078%=      5-min Rain = 0
KOD1 151528Z 16004KT 24/20 A2999 RMK A01 T02410200  RH  078%=      5-min Rain = 0
KOD1 151529Z 15005KT 24/20 A2999 RMK A01 T02420201  RH  078%=      5-min Rain = 0
KOD1 151530Z 16005KT 24/20 A2999 RMK A01 T02420198  RH  076%=      5-min Rain = 0
KOD1 151531Z 17004KT 24/20 A30 RMK A01 T02430200  RH  077%=      5-min Rain = 0
KOD1 151532Z 17004KT 24/20 A30 RMK A01 T02440200  RH  076%=      5-min Rain = 0
KOD1 151533Z 18005KT 25/20 A30 RMK A01 T02450200  RH  076%=      5-min Rain = 0
KOD1 151534Z 17005KT 25/20 A30 RMK A01 T02450199  RH  075%=      5-min Rain = 0
KOD1 151535Z 17004KT 25/20 A30 RMK A01 T02450199  RH  075%=      5-min Rain = 0
KOD1 151536Z 16005KT 25/20 A30 RMK A01 T02470201  RH  076%=      5-min Rain = 0
KOD1 151537Z 16004KT 25/20 A30 RMK A01 T02480201  RH  075%=      5-min Rain = 0
KOD1 151538Z 19004KT 25/20 A30 RMK A01 T02490199  RH  074%=      5-min Rain = 0
KOD1 151539Z 19005KT 25/20 A2999 RMK A01 T02490200  RH  074%=      5-min Rain = 0
KOD1 151540Z 20005KT 25/20 A2999 RMK A01 T02500203  RH  075%=      5-min Rain = 0
KOD1 151541Z 15005KT 25/20 A2999 RMK A01 T02520203  RH  075%=      5-min Rain = 0
KOD1 151542Z 16003KT 25/20 A2999 RMK A01 T02520201  RH  073%=      5-min Rain = 0
KOD1 151543Z 17004KT 25/20 A2999 RMK A01 T02530203  RH  074%=      5-min Rain = 0
KOD1 151544Z 18006KT 26/20 A2999 RMK A01 T02550203  RH  073%=      5-min Rain = 0
KOD1 151545Z 18006KT 26/20 A2999 RMK A01 T02560198  RH  070%=      5-min Rain = 0
KOD1 151546Z 18006KT 26/20 A2999 RMK A01 T02560195  RH  069%=      5-min Rain = 0
KOD1 151547Z 20006KT 26/20 A2999 RMK A01 T02570200  RH  071%=      5-min Rain = 0
KOD1 151548Z 19007KT 26/20 A2999 RMK A01 T02580195  RH  068%=      5-min Rain = 0
KOD1 151549Z 18007KT 26/20 A2999 RMK A01 T02590196  RH  068%=      5-min Rain = 0
KOD1 151550Z 20007KT 26/20 A2999 RMK A01 T02590195  RH  068%=      5-min Rain = 0
KOD1 151551Z 17005KT 26/19 A2999 RMK A01 T02590193  RH  067%=      5-min Rain = 0
KOD1 151552Z 19007KT 26/19 A2999 RMK A01 T02590192  RH  066%=      5-min Rain = 0
KOD1 151553Z 20005KT 26/19 A2999 RMK A01 T02600193  RH  067%=      5-min Rain = 0
KOD1 151554Z 20005KT 26/20 A2999 RMK A01 T02610196  RH  067%=      5-min Rain = 0
KOD1 151555Z 19006KT 26/20 A2999 RMK A01 T02620198  RH  068%=      5-min Rain = 0
KOD1 151556Z 19006KT 26/20 A2999 RMK A01 T02630197  RH  067%=      5-min Rain = 0
KOD1 151557Z 17006KT 27/20 A2999 RMK A01 T02650198  RH  066%=      5-min Rain = 0
KOD1 151558Z 20006KT 27/20 A2999 RMK A01 T02660195  RH  065%=      5-min Rain = 0
KOD1 151559Z 16005KT 27/20 A2999 RMK A01 T02670197  RH  066%=      5-min Rain = 0
KOD1 151600Z 16006KT 27/20 A2999 RMK A01 T02670198  RH  066%=      5-min Rain = 0
KOD1 151601Z 16004KT 27/20 A2999 RMK A01 T02690199  RH  065%=      5-min Rain = 0
KOD1 151602Z 17005KT 27/20 A2999 RMK A01 T02700199  RH  065%=      5-min Rain = 0
KOD1 151603Z 17006KT 27/20 A2999 RMK A01 T02710197  RH  064%=      5-min Rain = 0
KOD1 151604Z 18007KT 27/19 A2999 RMK A01 T02710187  RH  060%=      5-min Rain = 0
KOD1 151605Z 19006KT 27/19 A2999 RMK A01 T02710189  RH  061%=      5-min Rain = 0
KOD1 151606Z 18004KT 27/19 A2999 RMK A01 T02700190  RH  062%=      5-min Rain = 0
KOD1 151607Z 18006KT 27/19 A2999 RMK A01 T02700188  RH  061%=      5-min Rain = 0
KOD1 151608Z 17006KT 27/19 A2999 RMK A01 T02710189  RH  061%=      5-min Rain = 0
KOD1 151609Z 19007KT 27/19 A2999 RMK A01 T02720190  RH  061%=      5-min Rain = 0
KOD1 151610Z 19004KT 27/19 A2999 RMK A01 T02710190  RH  061%=      5-min Rain = 0
KOD1 151611Z 19005KT 27/19 A2999 RMK A01 T02710186  RH  059%=      5-min Rain = 0
KOD1 151612Z 18008KT 27/18 A2999 RMK A01 T02710177  RH  057%=      5-min Rain = 0
KOD1 151613Z 18008KT 27/18 A2999 RMK A01 T02720176  RH  056%=      5-min Rain = 0
KOD1 151614Z 19007KT 27/18 A2999 RMK A01 T02720179  RH  057%=      5-min Rain = 0
KOD1 151615Z 18005KT 27/18 A2999 RMK A01 T02720183  RH  058%=      5-min Rain = 0
KOD1 151616Z 18006KT 27/19 A2999 RMK A01 T02710186  RH  060%=      5-min Rain = 0
KOD1 151617Z 18005KT 27/19 A2999 RMK A01 T02700186  RH  060%=      5-min Rain = 0
KOD1 151618Z 18006KT 27/19 A2999 RMK A01 T02700186  RH  060%=      5-min Rain = 0
KOD1 151619Z 17006KT 27/18 A2999 RMK A01 T02700180  RH  058%=      5-min Rain = 0
KOD1 151620Z 18009KT 27/18 A2999 RMK A01 T02720179  RH  057%=      5-min Rain = 0
KOD1 151621Z 17007KT 27/18 A2999 RMK A01 T02740181  RH  057%=      5-min Rain = 0
KOD1 151622Z 18005KT 28/18 A2999 RMK A01 T02750177  RH  055%=      5-min Rain = 0
KOD1 151623Z 18007KT 28/17 A2999 RMK A01 T02750174  RH  054%=      5-min Rain = 0
KOD1 151624Z 18007KT 28/18 A2999 RMK A01 T02760177  RH  055%=      5-min Rain = 0
KOD1 151625Z 18009KT 28/18 A2999 RMK A01 T02780178  RH  055%=      5-min Rain = 0
KOD1 151626Z 16006KT 28/18 A2999 RMK A01 T02780175  RH  054%=      5-min Rain = 0
KOD1 151627Z 18006KT 28/18 A2999 RMK A01 T02790176  RH  054%=      5-min Rain = 0
KOD1 151628Z 13004KT 28/18 A2999 RMK A01 T02790176  RH  053%=      5-min Rain = 0
KOD1 151629Z 13005KT 28/17 A2999 RMK A01 T02790173  RH  053%=      5-min Rain = 0
KOD1 151630Z 15006KT 28/18 A2999 RMK A01 T02790178  RH  054%=      5-min Rain = 0
KOD1 151631Z 15005KT 28/18 A2999 RMK A01 T02800182  RH  055%=      5-min Rain = 0
KOD1 151632Z 14005KT 28/18 A2999 RMK A01 T02830184  RH  055%=      5-min Rain = 0
KOD1 151633Z 18008KT 29/17 A2999 RMK A01 T02850174  RH  051%=      5-min Rain = 0
KOD1 151634Z 18008KT 28/17 A2999 RMK A01 T02840172  RH  050%=      5-min Rain = 0
KOD1 151635Z 17007KT 28/17 A2999 RMK A01 T02830171  RH  051%=      5-min Rain = 0
KOD1 151636Z 17005KT 28/18 A2999 RMK A01 T02840176  RH  052%=      5-min Rain = 0
KOD1 151637Z 13005KT 28/17 A2999 RMK A01 T02840174  RH  051%=      5-min Rain = 0
KOD1 151638Z 12007KT 28/18 A2999 RMK A01 T02840175  RH  052%=      5-min Rain = 0
KOD1 151639Z 13008KT 28/17 A2999 RMK A01 T02840173  RH  051%=      5-min Rain = 0
KOD1 151640Z 12008KT 28/17 A2999 RMK A01 T02830173  RH  051%=      5-min Rain = 0
KOD1 151641Z 15008KT 28/17 A2999 RMK A01 T02830174  RH  052%=      5-min Rain = 0
KOD1 151642Z 14006KT 28/17 A2999 RMK A01 T02820172  RH  051%=      5-min Rain = 0
KOD1 151643Z 14006KT 28/17 A2999 RMK A01 T02810171  RH  051%=      5-min Rain = 0
KOD1 151644Z 13010KT 28/17 A2999 RMK A01 T02820174  RH  052%=      5-min Rain = 0
KOD1 151645Z 14008KT 28/17 A2999 RMK A01 T02810173  RH  052%=      5-min Rain = 0
KOD1 151646Z 13007KT 28/17 A2999 RMK A01 T02810173  RH  052%=      5-min Rain = 0
KOD1 151647Z 13005KT 28/18 A2999 RMK A01 T02820178  RH  053%=      5-min Rain = 0
KOD1 151648Z 12008KT 28/18 A2999 RMK A01 T02840179  RH  053%=      5-min Rain = 0
KOD1 151649Z 13007KT 28/17 A2999 RMK A01 T02840172  RH  051%=      5-min Rain = 0
KOD1 151650Z 14005KT 28/17 A2999 RMK A01 T02840172  RH  051%=      5-min Rain = 0
KOD1 151651Z 16006KT 28/17 A2999 RMK A01 T02840174  RH  051%=      5-min Rain = 0
KOD1 151652Z 14005KT 29/17 A2999 RMK A01 T02860174  RH  051%=      5-min Rain = 0
KOD1 151653Z 15006KT 29/17 A2999 RMK A01 T02860172  RH  050%=      5-min Rain = 0
KOD1 151654Z 13006KT 29/17 A2999 RMK A01 T02870174  RH  050%=      5-min Rain = 0
KOD1 151655Z 14008KT 29/17 A2999 RMK A01 T02880169  RH  049%=      5-min Rain = 0
KOD1 151656Z 14007KT 29/17 A2999 RMK A01 T02890170  RH  049%=      5-min Rain = 0
KOD1 151657Z 15008KT 29/18 A2999 RMK A01 T02900175  RH  050%=      5-min Rain = 0
KOD1 151658Z 15008KT 29/18 A2999 RMK A01 T02910175  RH  049%=      5-min Rain = 0
KOD1 151659Z 16006KT 29/17 A2999 RMK A01 T02900169  RH  048%=      5-min Rain = 0
KOD1 151700Z 16004KT 29/17 A2999 RMK A01 T02890168  RH  048%=      5-min Rain = 0
KOD1 151701Z 15005KT 29/17 A2999 RMK A01 T02890173  RH  049%=      5-min Rain = 0
KOD1 151702Z 15008KT 29/18 A2999 RMK A01 T02900176  RH  050%=      5-min Rain = 0
KOD1 151703Z 13007KT 29/18 A2999 RMK A01 T02900176  RH  050%=      5-min Rain = 0
KOD1 151704Z 11007KT 29/18 A2999 RMK A01 T02900178  RH  051%=      5-min Rain = 0
KOD1 151705Z 12004KT 29/18 A2999 RMK A01 T02920178  RH  050%=      5-min Rain = 0
KOD1 151706Z 14008KT 29/18 A2999 RMK A01 T02940176  RH  049%=      5-min Rain = 0
KOD1 151707Z 15006KT 29/17 A2999 RMK A01 T02940173  RH  048%=      5-min Rain = 0
KOD1 151708Z 14004KT 29/17 A2999 RMK A01 T02930168  RH  047%=      5-min Rain = 0
KOD1 151709Z 13008KT 29/17 A2999 RMK A01 T02930173  RH  048%=      5-min Rain = 0
KOD1 151710Z 15009KT 29/17 A2999 RMK A01 T02930167  RH  046%=      5-min Rain = 0
KOD1 151711Z 15008KT 29/17 A2999 RMK A01 T02920168  RH  047%=      5-min Rain = 0
KOD1 151712Z 14009KT 29/17 A2999 RMK A01 T02920170  RH  048%=      5-min Rain = 0
KOD1 151713Z 13008KT 29/17 A2999 RMK A01 T02930173  RH  048%=      5-min Rain = 0
KOD1 151714Z 13007KT 30/17 A2999 RMK A01 T02950174  RH  048%=      5-min Rain = 0
KOD1 151715Z 13007KT 30/17 A2999 RMK A01 T02950172  RH  047%=      5-min Rain = 0
KOD1 151716Z 12009KT 30/17 A2999 RMK A01 T02960173  RH  048%=      5-min Rain = 0
KOD1 151717Z 12006KT 29/17 A2999 RMK A01 T02940172  RH  048%=      5-min Rain = 0
KOD1 151718Z 13009KT 30/17 A2999 RMK A01 T02950171  RH  047%=      5-min Rain = 0
KOD1 151719Z 14006KT 29/17 A2999 RMK A01 T02940167  RH  046%=      5-min Rain = 0
KOD1 151720Z 14005KT 29/17 A2999 RMK A01 T02920166  RH  046%=      5-min Rain = 0
KOD1 151721Z 13006KT 29/17 A2999 RMK A01 T02910169  RH  047%=      5-min Rain = 0
KOD1 151722Z 16009KT 29/17 A2999 RMK A01 T02920169  RH  047%=      5-min Rain = 0
KOD1 151723Z 17009KT 29/17 A2999 RMK A01 T02930168  RH  047%=      5-min Rain = 0
KOD1 151724Z 17005KT 29/17 A2999 RMK A01 T02920167  RH  047%=      5-min Rain = 0
KOD1 151725Z 13006KT 29/18 A2999 RMK A01 T02930175  RH  049%=      5-min Rain = 0
KOD1 151726Z 12008KT 30/17 A2999 RMK A01 T02950170  RH  047%=      5-min Rain = 0
KOD1 151727Z 13011KT 30/17 A2999 RMK A01 T02950168  RH  047%=      5-min Rain = 0
KOD1 151728Z 11006KT 29/17 A2999 RMK A01 T02920167  RH  047%=      5-min Rain = 0
KOD1 151729Z 12007G12KT 29/17 A2999 RMK A01 T02920170  RH  048%=      5-min Rain = 0
KOD1 151730Z 12010KT 29/17 A2999 RMK A01 T02930165  RH  046%=      5-min Rain = 0
KOD1 151731Z 13008KT 29/16 A2999 RMK A01 T02930164  RH  046%=      5-min Rain = 0
KOD1 151732Z 14007KT 29/17 A2999 RMK A01 T02940165  RH  046%=      5-min Rain = 0
KOD1 151733Z 13008KT 30/17 A2999 RMK A01 T02950169  RH  047%=      5-min Rain = 0
KOD1 151734Z 12010KT 30/17 A2999 RMK A01 T02970172  RH  047%=      5-min Rain = 0
KOD1 151735Z 11010KT 30/17 A2999 RMK A01 T02970166  RH  045%=      5-min Rain = 0
KOD1 151736Z 10006KT 30/16 A2999 RMK A01 T02950160  RH  044%=      5-min Rain = 0
KOD1 151737Z 09006KT 29/17 A2998 RMK A01 T02940165  RH  046%=      5-min Rain = 0
KOD1 151738Z 12008KT 30/17 A2998 RMK A01 T02960170  RH  047%=      5-min Rain = 0
KOD1 151739Z 13009KT 30/16 A2998 RMK A01 T02970163  RH  044%=      5-min Rain = 0
KOD1 151740Z 12010KT 30/17 A2998 RMK A01 T02980167  RH  045%=      5-min Rain = 0
KOD1 151741Z 12009KT 30/17 A2998 RMK A01 T02960165  RH  045%=      5-min Rain = 0
KOD1 151742Z 13008KT 30/17 A2998 RMK A01 T02960165  RH  045%=      5-min Rain = 0
KOD1 151743Z 14008KT 30/16 A2998 RMK A01 T02970164  RH  045%=      5-min Rain = 0
KOD1 151744Z 10010KT 30/17 A2998 RMK A01 T02980169  RH  046%=      5-min Rain = 0
KOD1 151745Z 10010KT 30/17 A2998 RMK A01 T02990171  RH  046%=      5-min Rain = 0
KOD1 151746Z 13008KT 30/17 A2998 RMK A01 T03010170  RH  045%=      5-min Rain = 0
KOD1 151747Z 14009KT 30/16 A2998 RMK A01 T03000160  RH  043%=      5-min Rain = 0
KOD1 151748Z 14008KT 30/16 A2998 RMK A01 T02980160  RH  043%=      5-min Rain = 0
KOD1 151749Z 13007G12KT 30/16 A2998 RMK A01 T02960155  RH  042%=      5-min Rain = 0
KOD1 151750Z 13008KT 30/17 A2998 RMK A01 T02960165  RH  045%=      5-min Rain = 0
KOD1 151751Z 13007KT 30/16 A2998 RMK A01 T02950164  RH  045%=      5-min Rain = 0
KOD1 151752Z 14007KT 29/17 A2998 RMK A01 T02940165  RH  046%=      5-min Rain = 0
KOD1 151753Z 14008KT 30/17 A2998 RMK A01 T02950171  RH  047%=      5-min Rain = 0
KOD1 151754Z 12013KT 30/17 A2998 RMK A01 T02990168  RH  045%=      5-min Rain = 0
KOD1 151755Z 12011KT 30/16 A2998 RMK A01 T02990163  RH  044%=      5-min Rain = 0
KOD1 151756Z 13009KT 30/16 A2998 RMK A01 T02990160  RH  043%=      5-min Rain = 0
KOD1 151757Z 14008KT 30/16 A2998 RMK A01 T02990163  RH  044%=      5-min Rain = 0
KOD1 151758Z 12007KT 30/17 A2998 RMK A01 T02980167  RH  045%=      5-min Rain = 0
KOD1 151759Z 13008G13KT 30/17 A2998 RMK A01 T02990171  RH  046%=      5-min Rain = 0
KOD1 151800Z 13011KT 30/17 A2998 RMK A01 T03000168  RH  045%=      5-min Rain = 0
KOD1 151801Z 13009KT 30/17 A2998 RMK A01 T03000167  RH  045%=      5-min Rain = 0
KOD1 151802Z 13010KT 30/16 A2998 RMK A01 T02990163  RH  044%=      5-min Rain = 0
KOD1 151803Z 11007KT 30/17 A2998 RMK A01 T02980169  RH  046%=      5-min Rain = 0
KOD1 151804Z 09006KT 30/17 A2998 RMK A01 T03010174  RH  046%=      5-min Rain = 0
KOD1 151805Z 11008G14KT 30/17 A2997 RMK A01 T03020172  RH  046%=      5-min Rain = 0
KOD1 151806Z 12009KT 30/17 A2997 RMK A01 T03010172  RH  046%=      5-min Rain = 0
KOD1 151807Z 15008KT 30/17 A2997 RMK A01 T03000168  RH  045%=      5-min Rain = 0
KOD1 151808Z 13009KT 30/17 A2997 RMK A01 T03000173  RH  047%=      5-min Rain = 0
KOD1 151809Z 12009KT 30/17 A2998 RMK A01 T03020174  RH  046%=      5-min Rain = 0
KOD1 151810Z 12011KT 30/17 A2998 RMK A01 T03030167  RH  044%=      5-min Rain = 0
KOD1 151811Z 12010KT 30/17 A2998 RMK A01 T03020167  RH  044%=      5-min Rain = 0
KOD1 151812Z 13009KT 30/17 A2997 RMK A01 T03010167  RH  044%=      5-min Rain = 0
KOD1 151813Z 14008KT 30/17 A2997 RMK A01 T03020165  RH  044%=      5-min Rain = 0
KOD1 151814Z 14007KT 30/17 A2997 RMK A01 T03020169  RH  045%=      5-min Rain = 0
KOD1 151815Z 13007KT 30/17 A2997 RMK A01 T03040174  RH  046%=      5-min Rain = 0
KOD1 151816Z 11011KT 31/17 A2997 RMK A01 T03060173  RH  045%=      5-min Rain = 0
KOD1 151817Z 10010G16KT 31/17 A2997 RMK A01 T03050170  RH  044%=      5-min Rain = 0
KOD1 151818Z 08008KT 30/17 A2997 RMK A01 T03030172  RH  045%=      5-min Rain = 0
KOD1 151819Z 08008KT 30/17 A2997 RMK A01 T03030170  RH  045%=      5-min Rain = 0
KOD1 151820Z 09007KT 30/17 A2997 RMK A01 T03010172  RH  046%=      5-min Rain = 0
KOD1 151821Z 09005KT 30/17 A2997 RMK A01 T02990172  RH  046%=      5-min Rain = 0
KOD1 151822Z 11004KT 30/17 A2997 RMK A01 T02980173  RH  047%=      5-min Rain = 0
KOD1 151823Z 12007KT 30/18 A2997 RMK A01 T02980175  RH  048%=      5-min Rain = 0
KOD1 151824Z 13007KT 30/17 A2997 RMK A01 T02990174  RH  047%=      5-min Rain = 0
KOD1 151825Z 11008KT 30/18 A2997 RMK A01 T02980177  RH  048%=      5-min Rain = 0
KOD1 151826Z 10009KT 30/18 A2997 RMK A01 T02970177  RH  049%=      5-min Rain = 0
KOD1 151827Z 10009KT 30/18 A2997 RMK A01 T02980184  RH  050%=      5-min Rain = 0
KOD1 151828Z 11010KT 30/18 A2997 RMK A01 T03020183  RH  049%=      5-min Rain = 0
KOD1 151829Z 10008KT 30/18 A2997 RMK A01 T03020175  RH  047%=      5-min Rain = 0
KOD1 151830Z 10006KT 30/18 A2997 RMK A01 T03020182  RH  048%=      5-min Rain = 0
KOD1 151831Z 12007KT 31/18 A2997 RMK A01 T03050179  RH  047%=      5-min Rain = 0
KOD1 151832Z 12007KT 30/18 A2997 RMK A01 T03040176  RH  046%=      5-min Rain = 0
KOD1 151833Z 12007KT 30/18 A2997 RMK A01 T03040177  RH  046%=      5-min Rain = 0
KOD1 151834Z 11003KT 30/18 A2997 RMK A01 T03030175  RH  046%=      5-min Rain = 0
KOD1 151835Z 07002KT 30/18 A2997 RMK A01 T03020176  RH  047%=      5-min Rain = 0
KOD1 151836Z 11002KT 30/18 A2997 RMK A01 T03040177  RH  047%=      5-min Rain = 0
KOD1 151837Z 12009KT 31/19 A2997 RMK A01 T03050185  RH  049%=      5-min Rain = 0
KOD1 151838Z 11010KT 31/18 A2997 RMK A01 T03070182  RH  047%=      5-min Rain = 0
KOD1 151839Z 12007KT 31/18 A2997 RMK A01 T03060180  RH  047%=      5-min Rain = 0
KOD1 151840Z 12008KT 31/18 A2997 RMK A01 T03050178  RH  047%=      5-min Rain = 0
KOD1 151841Z 11007KT 30/18 A2997 RMK A01 T03030180  RH  048%=      5-min Rain = 0
KOD1 151842Z 11004KT 30/18 A2997 RMK A01 T03020179  RH  048%=      5-min Rain = 0
KOD1 151843Z 11007KT 30/18 A2997 RMK A01 T03000179  RH  048%=      5-min Rain = 0
KOD1 151844Z 11008KT 30/18 A2997 RMK A01 T03000184  RH  050%=      5-min Rain = 0
KOD1 151845Z 13007KT 30/18 A2997 RMK A01 T02980180  RH  049%=      5-min Rain = 0
KOD1 151846Z 12007KT 30/18 A2997 RMK A01 T02970182  RH  050%=      5-min Rain = 0
KOD1 151847Z 12006KT 30/18 A2997 RMK A01 T02980183  RH  050%=      5-min Rain = 0
KOD1 151848Z 07005KT 30/18 A2997 RMK A01 T02980179  RH  049%=      5-min Rain = 0
KOD1 151849Z 06006KT 30/18 A2997 RMK A01 T02980176  RH  048%=      5-min Rain = 0
KOD1 151850Z 06005KT 30/18 A2996 RMK A01 T02980178  RH  049%=      5-min Rain = 0
KOD1 151851Z 09006KT 30/18 A2997 RMK A01 T02990177  RH  048%=      5-min Rain = 0
KOD1 151852Z 09007KT 30/18 A2996 RMK A01 T02980177  RH  048%=      5-min Rain = 0
KOD1 151853Z 12006KT 30/18 A2996 RMK A01 T02980176  RH  048%=      5-min Rain = 0
KOD1 151854Z 14008KT 30/18 A2996 RMK A01 T02980176  RH  048%=      5-min Rain = 0
KOD1 151855Z 11007KT 30/18 A2996 RMK A01 T02990178  RH  048%=      5-min Rain = 0
KOD1 151856Z 13006KT 30/17 A2996 RMK A01 T02990172  RH  046%=      5-min Rain = 0
KOD1 151857Z 14009KT 30/17 A2996 RMK A01 T02980173  RH  047%=      5-min Rain = 0
KOD1 151858Z 14008KT 30/17 A2996 RMK A01 T02990174  RH  047%=      5-min Rain = 0
KOD1 151859Z 12007KT 30/18 A2996 RMK A01 T02990179  RH  048%=      5-min Rain = 0
KOD1 151900Z 11008KT 30/18 A2996 RMK A01 T03010180  RH  048%=      5-min Rain = 0
KOD1 151901Z 11011KT 30/18 A2996 RMK A01 T03000178  RH  048%=      5-min Rain = 0
KOD1 151902Z 11010KT 30/18 A2996 RMK A01 T02990179  RH  049%=      5-min Rain = 0
KOD1 151903Z 11010KT 30/18 A2996 RMK A01 T02980184  RH  050%=      5-min Rain = 0
KOD1 151904Z 11010KT 30/19 A2996 RMK A01 T02980189  RH  052%=      5-min Rain = 0
KOD1 151905Z 12010KT 30/19 A2996 RMK A01 T02980188  RH  052%=      5-min Rain = 0
KOD1 151906Z 11009KT 30/19 A2996 RMK A01 T02960187  RH  052%=      5-min Rain = 0
KOD1 151907Z 11008KT 30/19 A2996 RMK A01 T02950188  RH  052%=      5-min Rain = 0
KOD1 151908Z 11013KT 30/19 A2996 RMK A01 T02950187  RH  052%=      5-min Rain = 0
KOD1 151909Z 09009KT 29/19 A2996 RMK A01 T02940186  RH  052%=      5-min Rain = 0
KOD1 151910Z 09008KT 29/19 A2996 RMK A01 T02930187  RH  053%=      5-min Rain = 0
KOD1 151911Z 09008KT 29/19 A2996 RMK A01 T02930191  RH  054%=      5-min Rain = 0
KOD1 151912Z 09011KT 29/19 A2996 RMK A01 T02930193  RH  055%=      5-min Rain = 0
KOD1 151913Z 09010KT 29/19 A2996 RMK A01 T02920190  RH  054%=      5-min Rain = 0
KOD1 151914Z 09010KT 29/19 A2996 RMK A01 T02920191  RH  055%=      5-min Rain = 0
KOD1 151915Z 10010KT 29/19 A2996 RMK A01 T02920191  RH  054%=      5-min Rain = 0
KOD1 151916Z 11007KT 29/19 A2996 RMK A01 T02920189  RH  054%=      5-min Rain = 0
KOD1 151917Z 11008KT 29/19 A2996 RMK A01 T02930191  RH  054%=      5-min Rain = 0
KOD1 151918Z 09007KT 30/19 A2996 RMK A01 T02950192  RH  054%=      5-min Rain = 0
KOD1 151919Z 10007KT 30/19 A2996 RMK A01 T02960191  RH  053%=      5-min Rain = 0
KOD1 151920Z 11007KT 30/19 A2996 RMK A01 T02970188  RH  052%=      5-min Rain = 0
KOD1 151921Z 11006KT 30/19 A2996 RMK A01 T03000190  RH  052%=      5-min Rain = 0
KOD1 151922Z 10008KT 30/19 A2996 RMK A01 T03020191  RH  051%=      5-min Rain = 0
KOD1 151923Z 10007KT 30/19 A2996 RMK A01 T03030193  RH  052%=      5-min Rain = 0
KOD1 151924Z 09010KT 31/20 A2996 RMK A01 T03050195  RH  052%=      5-min Rain = 0
KOD1 151925Z 10010KT 31/19 A2996 RMK A01 T03050191  RH  051%=      5-min Rain = 0
KOD1 151926Z 10009KT 30/19 A2996 RMK A01 T03030190  RH  051%=      5-min Rain = 0
KOD1 151927Z 09008KT 30/19 A2996 RMK A01 T03010192  RH  052%=      5-min Rain = 0
KOD1 151928Z 08007KT 30/19 A2996 RMK A01 T03000191  RH  052%=      5-min Rain = 0
KOD1 151929Z 09010KT 30/19 A2996 RMK A01 T03000191  RH  052%=      5-min Rain = 0
KOD1 151930Z 09007KT 30/19 A2996 RMK A01 T02990189  RH  052%=      5-min Rain = 0
KOD1 151931Z 10008KT 30/19 A2996 RMK A01 T02990191  RH  053%=      5-min Rain = 0
KOD1 151932Z 10009KT 30/19 A2996 RMK A01 T02990189  RH  052%=      5-min Rain = 0
KOD1 151933Z 09008KT 30/19 A2996 RMK A01 T02990188  RH  051%=      5-min Rain = 0
KOD1 151934Z 09009KT 30/19 A2996 RMK A01 T02990188  RH  052%=      5-min Rain = 0
KOD1 151935Z 08007KT 30/18 A2996 RMK A01 T02980184  RH  050%=      5-min Rain = 0
KOD1 151936Z 08008KT 30/19 A2996 RMK A01 T02980186  RH  051%=      5-min Rain = 0
KOD1 151937Z 09009KT 30/19 A2996 RMK A01 T02980187  RH  051%=      5-min Rain = 0
KOD1 151938Z 08008KT 30/19 A2996 RMK A01 T03000189  RH  051%=      5-min Rain = 0
KOD1 151939Z 07007KT 30/19 A2996 RMK A01 T03040190  RH  050%=      5-min Rain = 0
KOD1 151940Z 09006KT 31/19 A2995 RMK A01 T03060186  RH  049%=      5-min Rain = 0
KOD1 151941Z 10007KT 31/19 A2995 RMK A01 T03050187  RH  049%=      5-min Rain = 0
KOD1 151942Z 10011KT 31/19 A2996 RMK A01 T03070191  RH  050%=      5-min Rain = 0
KOD1 151943Z 09010KT 31/19 A2996 RMK A01 T03070186  RH  049%=      5-min Rain = 0
KOD1 151944Z 10008KT 31/19 A2996 RMK A01 T03050186  RH  049%=      5-min Rain = 0
KOD1 151945Z 11009KT 30/18 A2996 RMK A01 T03020184  RH  049%=      5-min Rain = 0
KOD1 151946Z 11009KT 30/19 A2996 RMK A01 T03010187  RH  050%=      5-min Rain = 0
KOD1 151947Z 11009KT 30/19 A2995 RMK A01 T03010188  RH  051%=      5-min Rain = 0
KOD1 151948Z 09008KT 30/18 A2995 RMK A01 T03000184  RH  050%=      5-min Rain = 0
KOD1 151949Z 09008KT 30/19 A2995 RMK A01 T02990185  RH  051%=      5-min Rain = 0
KOD1 151950Z 09009KT 30/19 A2995 RMK A01 T02980188  RH  052%=      5-min Rain = 0
KOD1 151951Z 07011KT 30/19 A2996 RMK A01 T02970191  RH  053%=      5-min Rain = 0
KOD1 151952Z 06013KT 30/20 A2996 RMK A01 T02960200  RH  056%=      5-min Rain = 0
KOD1 151953Z 05014KT 29/20 A2995 RMK A01 T02910200  RH  058%=      5-min Rain = 0
KOD1 151954Z 06013KT 29/20 A2995 RMK A01 T02870202  RH  060%=      5-min Rain = 0
KOD1 151955Z 06014KT 29/20 A2995 RMK A01 T02860202  RH  061%=      5-min Rain = 0
KOD1 151956Z 08014KT 28/20 A2995 RMK A01 T02840203  RH  062%=      5-min Rain = 0
KOD1 151957Z 07012KT 28/20 A2995 RMK A01 T02810203  RH  062%=      5-min Rain = 0
KOD1 151958Z 07016KT 28/20 A2996 RMK A01 T02790202  RH  063%=      5-min Rain = 0
KOD1 151959Z 07017KT 28/20 A2996 RMK A01 T02760201  RH  064%=      5-min Rain = 0
KOD1 152000Z 07014KT 27/20 A2996 RMK A01 T02740201  RH  064%=      5-min Rain = 0
KOD1 152001Z 07016KT 27/20 A2996 RMK A01 T02720201  RH  065%=      5-min Rain = 0
KOD1 152002Z 07015G22KT 27/20 A2996 RMK A01 T02700201  RH  066%=      5-min Rain = 0
KOD1 152003Z 07013KT 27/20 A2995 RMK A01 T02700202  RH  066%=      5-min Rain = 0
KOD1 152004Z 07012KT 27/20 A2995 RMK A01 T02710203  RH  066%=      5-min Rain = 0
KOD1 152005Z 07012KT 27/20 A2995 RMK A01 T02710202  RH  066%=      5-min Rain = 0
KOD1 152006Z 09014KT 27/20 A2995 RMK A01 T02720203  RH  066%=      5-min Rain = 0
KOD1 152007Z 08018KT 27/20 A2995 RMK A01 T02720202  RH  066%=      5-min Rain = 0
KOD1 152008Z 08015KT 27/20 A2995 RMK A01 T02710202  RH  066%=      5-min Rain = 0
KOD1 152009Z 08014KT 27/20 A2995 RMK A01 T02710203  RH  066%=      5-min Rain = 0
KOD1 152010Z 08013KT 27/21 A2995 RMK A01 T02720205  RH  067%=      5-min Rain = 0
KOD1 152011Z 08012KT 28/21 A2995 RMK A01 T02750206  RH  066%=      5-min Rain = 0
KOD1 152012Z 08013KT 28/21 A2995 RMK A01 T02790207  RH  065%=      5-min Rain = 0
KOD1 152013Z 09018KT 28/21 A2995 RMK A01 T02810205  RH  064%=      5-min Rain = 0
KOD1 152014Z 08017KT 28/20 A2995 RMK A01 T02800204  RH  063%=      5-min Rain = 0
KOD1 152015Z 09016KT 28/21 A2995 RMK A01 T02800205  RH  064%=      5-min Rain = 0
KOD1 152016Z 08015KT 28/21 A2995 RMK A01 T02810206  RH  063%=      5-min Rain = 0
KOD1 152017Z 09018KT 28/21 A2995 RMK A01 T02820205  RH  063%=      5-min Rain = 0
KOD1 152018Z 07014KT 28/21 A2995 RMK A01 T02830207  RH  063%=      5-min Rain = 0
KOD1 152019Z 07014KT 28/20 A2995 RMK A01 T02830203  RH  062%=      5-min Rain = 0
KOD1 152020Z 07015KT 28/20 A2995 RMK A01 T02830204  RH  062%=      5-min Rain = 0
KOD1 152021Z 08017KT 28/20 A2995 RMK A01 T02820204  RH  063%=      5-min Rain = 0
KOD1 152022Z 08014G20KT 28/21 A2995 RMK A01 T02830206  RH  063%=      5-min Rain = 0
KOD1 152023Z 08017KT 28/20 A2995 RMK A01 T02820204  RH  063%=      5-min Rain = 0
KOD1 152024Z 07014KT 28/21 A2995 RMK A01 T02810205  RH  063%=      5-min Rain = 0
KOD1 152025Z 06013KT 28/20 A2995 RMK A01 T02810203  RH  063%=      5-min Rain = 0
KOD1 152026Z 06014KT 28/20 A2995 RMK A01 T02810204  RH  063%=      5-min Rain = 0
KOD1 152027Z 07011KT 28/21 A2995 RMK A01 T02820207  RH  064%=      5-min Rain = 0
KOD1 152028Z 08012KT 29/21 A2995 RMK A01 T02850207  RH  063%=      5-min Rain = 0
KOD1 152029Z 07012KT 29/21 A2995 RMK A01 T02860207  RH  062%=      5-min Rain = 0
KOD1 152030Z 08014KT 29/21 A2995 RMK A01 T02870205  RH  061%=      5-min Rain = 0
KOD1 152031Z 08015KT 29/21 A2995 RMK A01 T02870207  RH  062%=      5-min Rain = 0
KOD1 152032Z 07012KT 29/20 A2995 RMK A01 T02860204  RH  061%=      5-min Rain = 0
KOD1 152033Z 07013KT 29/21 A2995 RMK A01 T02860206  RH  062%=      5-min Rain = 0
KOD1 152034Z 06012KT 29/20 A2995 RMK A01 T02860204  RH  061%=      5-min Rain = 0
KOD1 152035Z 08014KT 29/21 A2995 RMK A01 T02860205  RH  061%=      5-min Rain = 0
KOD1 152036Z 09015KT 29/21 A2995 RMK A01 T02850205  RH  062%=      5-min Rain = 0
KOD1 152037Z 07014KT 28/21 A2994 RMK A01 T02840205  RH  062%=      5-min Rain = 0
KOD1 152038Z 07014KT 29/20 A2994 RMK A01 T02850204  RH  062%=      5-min Rain = 0
KOD1 152039Z 08014KT 29/21 A2994 RMK A01 T02850205  RH  062%=      5-min Rain = 0
KOD1 152040Z 08015KT 29/21 A2994 RMK A01 T02860206  RH  062%=      5-min Rain = 0
KOD1 152041Z 09015KT 29/21 A2994 RMK A01 T02860206  RH  062%=      5-min Rain = 0
KOD1 152042Z 09015KT 29/21 A2994 RMK A01 T02870205  RH  061%=      5-min Rain = 0
KOD1 152043Z 08014KT 29/20 A2994 RMK A01 T02860204  RH  061%=      5-min Rain = 0
KOD1 152044Z 07015KT 28/20 A2994 RMK A01 T02840203  RH  061%=      5-min Rain = 0
KOD1 152045Z 07013KT 29/21 A2994 RMK A01 T02850206  RH  062%=      5-min Rain = 0
KOD1 152046Z 08016KT 29/20 A2994 RMK A01 T02860204  RH  061%=      5-min Rain = 0
KOD1 152047Z 08016KT 29/20 A2994 RMK A01 T02850203  RH  061%=      5-min Rain = 0
KOD1 152048Z 07013KT 28/20 A2994 RMK A01 T02840204  RH  062%=      5-min Rain = 0
KOD1 152049Z 07014G19KT 28/20 A2993 RMK A01 T02840204  RH  062%=      5-min Rain = 0
KOD1 152050Z 08013G18KT 29/21 A2993 RMK A01 T02850205  RH  062%=      5-min Rain = 0
KOD1 152051Z 09010G16KT 29/21 A2993 RMK A01 T02870207  RH  062%=      5-min Rain = 0
KOD1 152052Z 08014KT 29/21 A2993 RMK A01 T02890206  RH  061%=      5-min Rain = 0
KOD1 152053Z 07014KT 29/20 A2993 RMK A01 T02880203  RH  060%=      5-min Rain = 0
KOD1 152054Z 07012KT 29/20 A2993 RMK A01 T02870204  RH  061%=      5-min Rain = 0
KOD1 152055Z 07014KT 29/20 A2993 RMK A01 T02880202  RH  060%=      5-min Rain = 0
KOD1 152056Z 07014KT 29/20 A2993 RMK A01 T02870202  RH  060%=      5-min Rain = 0
KOD1 152057Z 09015KT 29/20 A2993 RMK A01 T02870204  RH  061%=      5-min Rain = 0
KOD1 152058Z 10016KT 29/20 A2993 RMK A01 T02860203  RH  061%=      5-min Rain = 0
KOD1 152059Z 09014KT 29/20 A2993 RMK A01 T02850204  RH  062%=      5-min Rain = 0
KOD1 152100Z 08012KT 29/20 A2993 RMK A01 T02860204  RH  061%=      5-min Rain = 0
KOD1 152101Z 09011KT 29/21 A2993 RMK A01 T02870206  RH  061%=      5-min Rain = 0
KOD1 152102Z 08013KT 29/21 A2993 RMK A01 T02880205  RH  061%=      5-min Rain = 0
KOD1 152103Z 08010KT 29/21 A2993 RMK A01 T02890207  RH  061%=      5-min Rain = 0
KOD1 152104Z 10013KT 29/21 A2993 RMK A01 T02910206  RH  060%=      5-min Rain = 0
KOD1 152105Z 11013KT 29/21 A2993 RMK A01 T02910206  RH  060%=      5-min Rain = 0
KOD1 152106Z 11013KT 29/21 A2993 RMK A01 T02920205  RH  060%=      5-min Rain = 0
KOD1 152107Z 09014KT 29/20 A2993 RMK A01 T02910204  RH  059%=      5-min Rain = 0
KOD1 152108Z 09012KT 29/20 A2992 RMK A01 T02900204  RH  060%=      5-min Rain = 0
KOD1 152109Z 09010KT 29/21 A2992 RMK A01 T02920208  RH  061%=      5-min Rain = 0
KOD1 152110Z 09012G17KT 29/21 A2992 RMK A01 T02930206  RH  059%=      5-min Rain = 0
KOD1 152111Z 10011KT 29/21 A2992 RMK A01 T02920205  RH  059%=      5-min Rain = 0
KOD1 152112Z 09013KT 29/20 A2992 RMK A01 T02920204  RH  059%=      5-min Rain = 0
KOD1 152113Z 08013KT 29/21 A2992 RMK A01 T02920205  RH  059%=      5-min Rain = 0
KOD1 152114Z 08011KT 29/21 A2992 RMK A01 T02930206  RH  060%=      5-min Rain = 0
KOD1 152115Z 08012KT 29/21 A2992 RMK A01 T02940205  RH  059%=      5-min Rain = 0
KOD1 152116Z 09013G20KT 29/21 A2992 RMK A01 T02940205  RH  059%=      5-min Rain = 0
KOD1 152117Z 08014KT 29/20 A2992 RMK A01 T02930204  RH  059%=      5-min Rain = 0
KOD1 152118Z 09014KT 29/20 A2992 RMK A01 T02910203  RH  059%=      5-min Rain = 0
KOD1 152119Z 09014KT 29/21 A2992 RMK A01 T02910205  RH  060%=      5-min Rain = 0
KOD1 152120Z 07013KT 29/20 A2992 RMK A01 T02900203  RH  059%=      5-min Rain = 0
KOD1 152121Z 08012KT 29/20 A2992 RMK A01 T02890203  RH  060%=      5-min Rain = 0
KOD1 152122Z 09011KT 29/21 A2992 RMK A01 T02890205  RH  060%=      5-min Rain = 0
KOD1 152123Z 09012KT 29/21 A2992 RMK A01 T02900205  RH  060%=      5-min Rain = 0
KOD1 152124Z 09012KT 29/21 A2992 RMK A01 T02920206  RH  060%=      5-min Rain = 0
KOD1 152125Z 10010KT 29/21 A2992 RMK A01 T02930206  RH  059%=      5-min Rain = 0
KOD1 152126Z 09011KT 29/21 A2992 RMK A01 T02940205  RH  059%=      5-min Rain = 0
KOD1 152127Z 08014KT 30/21 A2992 RMK A01 T02950205  RH  058%=      5-min Rain = 0
KOD1 152128Z 08014KT 29/20 A2992 RMK A01 T02930202  RH  058%=      5-min Rain = 0
KOD1 152129Z 08014KT 29/20 A2992 RMK A01 T02920203  RH  059%=      5-min Rain = 0
KOD1 152130Z 08014KT 29/20 A2992 RMK A01 T02910202  RH  059%=      5-min Rain = 0
KOD1 152131Z 08014KT 29/21 A2992 RMK A01 T02920205  RH  060%=      5-min Rain = 0
KOD1 152132Z 08014KT 29/20 A2992 RMK A01 T02910202  RH  059%=      5-min Rain = 0
KOD1 152133Z 08011KT 29/20 A2992 RMK A01 T02910204  RH  060%=      5-min Rain = 0
KOD1 152134Z 09010KT 29/21 A2992 RMK A01 T02910205  RH  060%=      5-min Rain = 0
KOD1 152135Z 10012KT 29/20 A2992 RMK A01 T02920204  RH  059%=      5-min Rain = 0
KOD1 152136Z 10015KT 29/20 A2992 RMK A01 T02920202  RH  059%=      5-min Rain = 0
KOD1 152137Z 09013KT 29/21 A2992 RMK A01 T02910205  RH  060%=      5-min Rain = 0
KOD1 152138Z 09014KT 29/20 A2992 RMK A01 T02910204  RH  059%=      5-min Rain = 0
KOD1 152139Z 08012KT 29/21 A2991 RMK A01 T02920206  RH  060%=      5-min Rain = 0
KOD1 152140Z 07012G17KT 29/20 A2991 RMK A01 T02920202  RH  058%=      5-min Rain = 0
KOD1 152141Z 07012KT 29/20 A2991 RMK A01 T02920202  RH  058%=      5-min Rain = 0
KOD1 152142Z 07014KT 29/20 A2991 RMK A01 T02910203  RH  059%=      5-min Rain = 0
KOD1 152143Z 09012KT 29/21 A2991 RMK A01 T02920206  RH  060%=      5-min Rain = 0
KOD1 152144Z 08013KT 29/21 A2992 RMK A01 T02930205  RH  059%=      5-min Rain = 0
KOD1 152145Z 08015KT 29/21 A2991 RMK A01 T02930205  RH  059%=      5-min Rain = 0
KOD1 152146Z 08013G18KT 29/21 A2991 RMK A01 T02930206  RH  059%=      5-min Rain = 0
KOD1 152147Z 08012KT 29/21 A2991 RMK A01 T02930205  RH  059%=      5-min Rain = 0
KOD1 152148Z 09011KT 29/21 A2991 RMK A01 T02940207  RH  059%=      5-min Rain = 0
KOD1 152149Z 07013KT 29/20 A2991 RMK A01 T02940204  RH  059%=      5-min Rain = 0
KOD1 152150Z 08014KT 29/20 A2991 RMK A01 T02920203  RH  059%=      5-min Rain = 0
KOD1 152151Z 07014KT 29/20 A2991 RMK A01 T02900203  RH  059%=      5-min Rain = 0
KOD1 152152Z 07012KT 29/20 A2991 RMK A01 T02910204  RH  059%=      5-min Rain = 0
KOD1 152153Z 08011G17KT 29/21 A2991 RMK A01 T02930206  RH  059%=      5-min Rain = 0
KOD1 152154Z 07013KT 29/21 A2991 RMK A01 T02930205  RH  059%=      5-min Rain = 0
KOD1 152155Z 07013KT 29/20 A2991 RMK A01 T02920202  RH  058%=      5-min Rain = 0
KOD1 152156Z 07012G17KT 29/20 A2991 RMK A01 T02900202  RH  059%=      5-min Rain = 0
KOD1 152157Z 08011KT 29/21 A2991 RMK A01 T02890206  RH  061%=      5-min Rain = 0
KOD1 152158Z 08011KT 29/21 A2991 RMK A01 T02910206  RH  060%=      5-min Rain = 0
KOD1 152159Z 09012KT 29/20 A2991 RMK A01 T02890204  RH  060%=      5-min Rain = 0
KOD1 152200Z 10012KT 29/21 A2991 RMK A01 T02890205  RH  061%=      5-min Rain = 0
KOD1 152201Z 09012KT 29/21 A2991 RMK A01 T02900206  RH  060%=      5-min Rain = 0
KOD1 152202Z 08014KT 29/21 A2991 RMK A01 T02910206  RH  060%=      5-min Rain = 0
KOD1 152203Z 08014KT 29/20 A2991 RMK A01 T02900204  RH  060%=      5-min Rain = 0
KOD1 152204Z 08013KT 29/20 A2991 RMK A01 T02900204  RH  060%=      5-min Rain = 0
KOD1 152205Z 07014KT 29/20 A2991 RMK A01 T02890204  RH  060%=      5-min Rain = 0
KOD1 152206Z 08014KT 29/21 A2991 RMK A01 T02890205  RH  060%=      5-min Rain = 0
KOD1 152207Z 10012KT 29/21 A2991 RMK A01 T02900205  RH  060%=      5-min Rain = 0
KOD1 152208Z 10012KT 29/20 A2991 RMK A01 T02900204  RH  060%=      5-min Rain = 0
KOD1 152209Z 10010KT 29/21 A2991 RMK A01 T02910207  RH  061%=      5-min Rain = 0
KOD1 152210Z 08010KT 29/21 A299 RMK A01 T02930207  RH  060%=      5-min Rain = 0
KOD1 152211Z 09014KT 29/21 A2991 RMK A01 T02940206  RH  059%=      5-min Rain = 0
KOD1 152212Z 07012KT 29/21 A2991 RMK A01 T02930205  RH  059%=      5-min Rain = 0
KOD1 152213Z 06012G18KT 29/20 A299 RMK A01 T02930203  RH  058%=      5-min Rain = 0
KOD1 152214Z 08016G21KT 29/20 A2991 RMK A01 T02930203  RH  059%=      5-min Rain = 0
KOD1 152215Z 10012KT 29/20 A2991 RMK A01 T02920204  RH  059%=      5-min Rain = 0
KOD1 152216Z 09014G19KT 29/21 A2991 RMK A01 T02910205  RH  060%=      5-min Rain = 0
KOD1 152217Z 09014KT 29/20 A2991 RMK A01 T02890203  RH  060%=      5-min Rain = 0
KOD1 152218Z 08017KT 29/20 A2991 RMK A01 T02860201  RH  060%=      5-min Rain = 0
KOD1 152219Z 09016KT 28/20 A2991 RMK A01 T02830202  RH  061%=      5-min Rain = 0
KOD1 152220Z 08016KT 28/20 A2991 RMK A01 T02810201  RH  062%=      5-min Rain = 0
KOD1 152221Z 08016KT 28/20 A2991 RMK A01 T02800201  RH  062%=      5-min Rain = 0
KOD1 152222Z 07012KT 28/20 A2991 RMK A01 T02790202  RH  063%=      5-min Rain = 0
KOD1 152223Z 08012KT 28/20 A2991 RMK A01 T02800202  RH  063%=      5-min Rain = 0
KOD1 152224Z 08014KT 28/20 A2991 RMK A01 T02800202  RH  063%=      5-min Rain = 0
KOD1 152225Z 07011KT 28/20 A299 RMK A01 T02810204  RH  063%=      5-min Rain = 0
KOD1 152226Z 07014KT 28/20 A299 RMK A01 T02830202  RH  062%=      5-min Rain = 0
KOD1 152227Z 07011KT 28/20 A299 RMK A01 T02830202  RH  061%=      5-min Rain = 0
KOD1 152228Z 08013KT 29/20 A299 RMK A01 T02850203  RH  061%=      5-min Rain = 0
KOD1 152229Z 07012KT 29/20 A299 RMK A01 T02860203  RH  061%=      5-min Rain = 0
KOD1 152230Z 08013KT 29/20 A299 RMK A01 T02870204  RH  061%=      5-min Rain = 0
KOD1 152231Z 09013KT 29/20 A299 RMK A01 T02890203  RH  060%=      5-min Rain = 0
KOD1 152232Z 08013KT 29/21 A299 RMK A01 T02910205  RH  060%=      5-min Rain = 0
KOD1 152233Z 07013KT 29/20 A299 RMK A01 T02930202  RH  058%=      5-min Rain = 0
KOD1 152234Z 07017KT 29/20 A299 RMK A01 T02920200  RH  058%=      5-min Rain = 0
KOD1 152235Z 07013KT 29/20 A299 RMK A01 T02900200  RH  058%=      5-min Rain = 0
KOD1 152236Z 07012KT 29/20 A299 RMK A01 T02890200  RH  059%=      5-min Rain = 0
KOD1 152237Z 07010KT 29/20 A299 RMK A01 T02880200  RH  059%=      5-min Rain = 0
KOD1 152238Z 06013G18KT 29/20 A299 RMK A01 T02870200  RH  059%=      5-min Rain = 0
KOD1 152239Z 07015KT 29/20 A299 RMK A01 T02850199  RH  060%=      5-min Rain = 0
KOD1 152240Z 07015KT 28/20 A299 RMK A01 T02820198  RH  060%=      5-min Rain = 0
KOD1 152241Z 07011KT 28/20 A299 RMK A01 T02810198  RH  061%=      5-min Rain = 0
KOD1 152242Z 07013KT 28/20 A299 RMK A01 T02800199  RH  061%=      5-min Rain = 0
KOD1 152243Z 07012KT 28/20 A299 RMK A01 T02810200  RH  062%=      5-min Rain = 0
KOD1 152244Z 06012KT 28/20 A299 RMK A01 T02820201  RH  061%=      5-min Rain = 0
KOD1 152245Z 08013KT 29/20 A299 RMK A01 T02850202  RH  061%=      5-min Rain = 0
KOD1 152246Z 07014G19KT 29/20 A299 RMK A01 T02850200  RH  060%=      5-min Rain = 0
KOD1 152247Z 07015G20KT 28/20 A299 RMK A01 T02840199  RH  060%=      5-min Rain = 0
KOD1 152248Z 08013KT 28/20 A299 RMK A01 T02840201  RH  061%=      5-min Rain = 0
KOD1 152249Z 07013KT 28/20 A299 RMK A01 T02840202  RH  061%=      5-min Rain = 0
KOD1 152250Z 08015KT 29/20 A299 RMK A01 T02850202  RH  061%=      5-min Rain = 0
KOD1 152251Z 08017KT 29/20 A299 RMK A01 T02860200  RH  060%=      5-min Rain = 0
KOD1 152252Z 08014KT 29/20 A299 RMK A01 T02850200  RH  060%=      5-min Rain = 0
KOD1 152253Z 08012KT 29/20 A299 RMK A01 T02850202  RH  061%=      5-min Rain = 0
KOD1 152254Z 09013KT 28/20 A299 RMK A01 T02840200  RH  060%=      5-min Rain = 0
KOD1 152255Z 09016KT 28/20 A299 RMK A01 T02820199  RH  061%=      5-min Rain = 0
KOD1 152256Z 09013KT 28/20 A299 RMK A01 T02810199  RH  061%=      5-min Rain = 0
KOD1 152257Z 10014KT 28/20 A299 RMK A01 T02810199  RH  061%=      5-min Rain = 0
KOD1 152258Z 10015KT 28/20 A299 RMK A01 T02810199  RH  061%=      5-min Rain = 0
KOD1 152259Z 10011KT 28/20 A299 RMK A01 T02820200  RH  061%=      5-min Rain = 0
KOD1 152300Z 08013KT 28/20 A299 RMK A01 T02830199  RH  060%=      5-min Rain = 0
KOD1 152301Z 09012KT 28/20 A299 RMK A01 T02840200  RH  060%=      5-min Rain = 0
KOD1 152302Z 09013KT 29/20 A299 RMK A01 T02850199  RH  060%=      5-min Rain = 0
KOD1 152303Z 09012KT 29/20 A299 RMK A01 T02860199  RH  059%=      5-min Rain = 0
KOD1 152304Z 08013KT 29/20 A299 RMK A01 T02850198  RH  059%=      5-min Rain = 0
KOD1 152305Z 08014KT 29/20 A299 RMK A01 T02850198  RH  059%=      5-min Rain = 0
KOD1 152306Z 08015KT 28/20 A299 RMK A01 T02840198  RH  059%=      5-min Rain = 0
KOD1 152307Z 09017KT 29/20 A299 RMK A01 T02850198  RH  059%=      5-min Rain = 0
KOD1 152308Z 10014KT 28/20 A299 RMK A01 T02840198  RH  060%=      5-min Rain = 0
KOD1 152309Z 10014KT 28/20 A299 RMK A01 T02830197  RH  060%=      5-min Rain = 0
KOD1 152310Z 08013G19KT 28/20 A299 RMK A01 T02840199  RH  060%=      5-min Rain = 0
KOD1 152311Z 08016KT 28/20 A299 RMK A01 T02830195  RH  059%=      5-min Rain = 0
KOD1 152312Z 09015KT 28/20 A299 RMK A01 T02820195  RH  059%=      5-min Rain = 0
KOD1 152313Z 08013KT 28/20 A299 RMK A01 T02810195  RH  060%=      5-min Rain = 0
KOD1 152314Z 08013KT 28/20 A299 RMK A01 T02810196  RH  060%=      5-min Rain = 0
KOD1 152315Z 08013KT 28/20 A299 RMK A01 T02810196  RH  060%=      5-min Rain = 0
KOD1 152316Z 08017KT 28/20 A299 RMK A01 T02820195  RH  059%=      5-min Rain = 0
KOD1 152317Z 08016KT 28/19 A299 RMK A01 T02810194  RH  059%=      5-min Rain = 0
KOD1 152318Z 08012KT 28/20 A299 RMK A01 T02810195  RH  060%=      5-min Rain = 0
KOD1 152319Z 09015KT 28/19 A299 RMK A01 T02820194  RH  059%=      5-min Rain = 0
KOD1 152320Z 08017KT 28/19 A299 RMK A01 T02820193  RH  058%=      5-min Rain = 0
KOD1 152321Z 09015KT 28/19 A299 RMK A01 T02820194  RH  059%=      5-min Rain = 0
KOD1 152322Z 09013KT 28/19 A299 RMK A01 T02820193  RH  058%=      5-min Rain = 0
KOD1 152323Z 09011KT 28/20 A2989 RMK A01 T02840196  RH  059%=      5-min Rain = 0
KOD1 152324Z 08012KT 29/19 A2989 RMK A01 T02850194  RH  058%=      5-min Rain = 0
KOD1 152325Z 08011G16KT 29/19 A2989 RMK A01 T02850191  RH  057%=      5-min Rain = 0
KOD1 152326Z 08011KT 28/19 A2989 RMK A01 T02840192  RH  057%=      5-min Rain = 0
KOD1 152327Z 10014KT 28/19 A2989 RMK A01 T02840190  RH  057%=      5-min Rain = 0
KOD1 152328Z 09013KT 28/19 A2989 RMK A01 T02840190  RH  057%=      5-min Rain = 0
KOD1 152329Z 10015KT 28/19 A2989 RMK A01 T02840190  RH  057%=      5-min Rain = 0
KOD1 152330Z 10014KT 29/19 A2989 RMK A01 T02850191  RH  057%=      5-min Rain = 0
KOD1 152331Z 10010KT 29/19 A2989 RMK A01 T02850192  RH  057%=      5-min Rain = 0
KOD1 152332Z 10013KT 29/19 A299 RMK A01 T02860190  RH  056%=      5-min Rain = 0
KOD1 152333Z 09016KT 29/19 A299 RMK A01 T02850188  RH  056%=      5-min Rain = 0
KOD1 152334Z 09012KT 28/19 A299 RMK A01 T02840188  RH  056%=      5-min Rain = 0
KOD1 152335Z 10017KT 28/19 A2989 RMK A01 T02840186  RH  055%=      5-min Rain = 0
KOD1 152336Z 09017KT 28/19 A2989 RMK A01 T02830185  RH  055%=      5-min Rain = 0
KOD1 152337Z 09014KT 28/19 A2989 RMK A01 T02830185  RH  056%=      5-min Rain = 0
KOD1 152338Z 08013KT 28/19 A2989 RMK A01 T02830186  RH  056%=      5-min Rain = 0
KOD1 152339Z 08017KT 28/18 A299 RMK A01 T02820181  RH  054%=      5-min Rain = 0
KOD1 152340Z 08015KT 28/18 A299 RMK A01 T02810180  RH  054%=      5-min Rain = 0
KOD1 152341Z 09012KT 28/18 A299 RMK A01 T02810182  RH  055%=      5-min Rain = 0
KOD1 152342Z 10014KT 28/18 A299 RMK A01 T02820181  RH  054%=      5-min Rain = 0
KOD1 152343Z 10015KT 28/18 A299 RMK A01 T02810179  RH  054%=      5-min Rain = 0
KOD1 152344Z 09015KT 28/18 A299 RMK A01 T02810180  RH  054%=      5-min Rain = 0
KOD1 152345Z 09015G20KT 28/18 A299 RMK A01 T02810178  RH  054%=      5-min Rain = 0
KOD1 152346Z 10014G20KT 28/18 A299 RMK A01 T02800177  RH  054%=      5-min Rain = 0
KOD1 152347Z 09015KT 28/18 A299 RMK A01 T02800177  RH  054%=      5-min Rain = 0
KOD1 152348Z 10012G17KT 28/18 A299 RMK A01 T02790179  RH  054%=      5-min Rain = 0
KOD1 152349Z 10012KT 28/18 A299 RMK A01 T02800179  RH  054%=      5-min Rain = 0
KOD1 152350Z 10014KT 28/18 A299 RMK A01 T02800176  RH  053%=      5-min Rain = 0
KOD1 152351Z 10013KT 28/18 A299 RMK A01 T02800176  RH  053%=      5-min Rain = 0
KOD1 152352Z 10013KT 28/17 A299 RMK A01 T02800173  RH  052%=      5-min Rain = 0
KOD1 152353Z 10012KT 28/18 A299 RMK A01 T02810175  RH  053%=      5-min Rain = 0
KOD1 152354Z 11013G18KT 28/17 A299 RMK A01 T02800174  RH  052%=      5-min Rain = 0
KOD1 152355Z 10014KT 28/17 A299 RMK A01 T02800172  RH  052%=      5-min Rain = 0
KOD1 152356Z 09014KT 28/17 A299 RMK A01 T02790172  RH  052%=      5-min Rain = 0
KOD1 152357Z 09016KT 28/17 A299 RMK A01 T02790173  RH  052%=      5-min Rain = 0
KOD1 152358Z 09017KT 28/17 A299 RMK A01 T02790174  RH  053%=      5-min Rain = 0
KOD1 152359Z 09016KT 28/17 A299 RMK A01 T02780174  RH  053%=      5-min Rain = 0
KOD1 160000Z 08015G21KT 28/18 A299 RMK A01 T02780176  RH  054%=      5-min Rain = 0
KOD1 160001Z 10015KT 28/18 A299 RMK A01 T02780175  RH  054%=      5-min Rain = 0
KOD1 160002Z 09015KT 28/18 A299 RMK A01 T02770175  RH  054%=      5-min Rain = 0
KOD1 160003Z 09018KT 28/18 A299 RMK A01 T02770175  RH  054%=      5-min Rain = 0
KOD1 160004Z 10017KT 28/18 A299 RMK A01 T02760175  RH  054%=      5-min Rain = 0
KOD1 160005Z 11017KT 28/18 A299 RMK A01 T02760175  RH  054%=      5-min Rain = 0
KOD1 160006Z 11014KT 28/18 A299 RMK A01 T02750177  RH  055%=      5-min Rain = 0
KOD1 160007Z 10013KT 28/18 A299 RMK A01 T02750177  RH  055%=      5-min Rain = 0
KOD1 160008Z 10012KT 28/18 A299 RMK A01 T02750176  RH  055%=      5-min Rain = 0
KOD1 160009Z 10011G17KT 28/18 A299 RMK A01 T02750177  RH  055%=      5-min Rain = 0
KOD1 160010Z 09014KT 28/17 A299 RMK A01 T02750174  RH  054%=      5-min Rain = 0
KOD1 160011Z 09012KT 28/17 A299 RMK A01 T02750174  RH  054%=      5-min Rain = 0
KOD1 160012Z 10010KT 28/18 A299 RMK A01 T02760175  RH  054%=      5-min Rain = 0
KOD1 160013Z 09011KT 28/17 A2989 RMK A01 T02760174  RH  054%=      5-min Rain = 0
KOD1 160014Z 10011KT 28/18 A2989 RMK A01 T02760175  RH  054%=      5-min Rain = 0
KOD1 160015Z 09013G18KT 28/18 A2989 RMK A01 T02770175  RH  054%=      5-min Rain = 0
KOD1 160016Z 08015KT 28/17 A2989 RMK A01 T02760171  RH  053%=      5-min Rain = 0
KOD1 160017Z 09013G19KT 28/17 A2989 RMK A01 T02760171  RH  053%=      5-min Rain = 0
KOD1 160018Z 09017KT 28/17 A2989 RMK A01 T02750169  RH  052%=      5-min Rain = 0
KOD1 160019Z 09015KT 27/17 A2989 RMK A01 T02740170  RH  053%=      5-min Rain = 0
KOD1 160020Z 09014KT 27/17 A2989 RMK A01 T02740169  RH  053%=      5-min Rain = 0
KOD1 160021Z 09012KT 27/17 A2989 RMK A01 T02740170  RH  053%=      5-min Rain = 0
KOD1 160022Z 09013KT 27/17 A2988 RMK A01 T02730170  RH  053%=      5-min Rain = 0
KOD1 160023Z 09013KT 27/17 A2988 RMK A01 T02730170  RH  053%=      5-min Rain = 0
KOD1 160024Z 09014KT 27/17 A2988 RMK A01 T02730171  RH  054%=      5-min Rain = 0
KOD1 160025Z 10014KT 27/17 A2988 RMK A01 T02730171  RH  054%=      5-min Rain = 0
KOD1 160026Z 09016KT 27/17 A2988 RMK A01 T02730169  RH  053%=      5-min Rain = 0
KOD1 160027Z 09013KT 27/17 A2988 RMK A01 T02720169  RH  053%=      5-min Rain = 0
KOD1 160028Z 09013KT 27/17 A2988 RMK A01 T02720170  RH  053%=      5-min Rain = 0
KOD1 160029Z 09014KT 27/17 A2988 RMK A01 T02720168  RH  053%=      5-min Rain = 0
KOD1 160030Z 08015KT 27/17 A2988 RMK A01 T02720168  RH  053%=      5-min Rain = 0
KOD1 160031Z 09015KT 27/17 A2988 RMK A01 T02720168  RH  053%=      5-min Rain = 0
KOD1 160032Z 09016KT 27/17 A2988 RMK A01 T02720168  RH  053%=      5-min Rain = 0
KOD1 160033Z 09015KT 27/17 A2989 RMK A01 T02710169  RH  053%=      5-min Rain = 0
KOD1 160034Z 09014KT 27/17 A2989 RMK A01 T02710169  RH  054%=      5-min Rain = 0
KOD1 160035Z 09013KT 27/17 A2989 RMK A01 T02710170  RH  054%=      5-min Rain = 0
KOD1 160036Z 09013KT 27/17 A2989 RMK A01 T02710171  RH  054%=      5-min Rain = 0
KOD1 160037Z 09013KT 27/17 A2989 RMK A01 T02710171  RH  055%=      5-min Rain = 0
KOD1 160038Z 09010G16KT 27/17 A2989 RMK A01 T02710173  RH  055%=      5-min Rain = 0
KOD1 160039Z 09014KT 27/17 A2989 RMK A01 T02710172  RH  055%=      5-min Rain = 0
KOD1 160040Z 09014KT 27/17 A2989 RMK A01 T02710173  RH  055%=      5-min Rain = 0
KOD1 160041Z 09012KT 27/17 A2989 RMK A01 T02710174  RH  055%=      5-min Rain = 0
KOD1 160042Z 09013KT 27/18 A2989 RMK A01 T02700175  RH  056%=      5-min Rain = 0
KOD1 160043Z 09014KT 27/18 A2989 RMK A01 T02700176  RH  056%=      5-min Rain = 0
KOD1 160044Z 09013KT 27/18 A2989 RMK A01 T02700177  RH  057%=      5-min Rain = 0
KOD1 160045Z 09015KT 27/18 A2989 RMK A01 T02700178  RH  057%=      5-min Rain = 0
KOD1 160046Z 10014KT 27/18 A2989 RMK A01 T02690178  RH  057%=      5-min Rain = 0
KOD1 160047Z 09015KT 27/18 A2989 RMK A01 T02690179  RH  058%=      5-min Rain = 0
KOD1 160048Z 10014KT 27/18 A2989 RMK A01 T02690179  RH  058%=      5-min Rain = 0
KOD1 160049Z 10013KT 27/18 A299 RMK A01 T02690179  RH  058%=      5-min Rain = 0
KOD1 160050Z 10015KT 27/18 A299 RMK A01 T02680179  RH  058%=      5-min Rain = 0
KOD1 160051Z 10013G18KT 27/18 A299 RMK A01 T02680180  RH  059%=      5-min Rain = 0
KOD1 160052Z 09014KT 27/18 A299 RMK A01 T02680182  RH  059%=      5-min Rain = 0
KOD1 160053Z 10013KT 27/18 A299 RMK A01 T02680184  RH  060%=      5-min Rain = 0
KOD1 160054Z 10013KT 27/19 A299 RMK A01 T02670186  RH  061%=      5-min Rain = 0
KOD1 160055Z 10013KT 27/19 A299 RMK A01 T02670187  RH  062%=      5-min Rain = 0
KOD1 160056Z 10012KT 27/19 A299 RMK A01 T02670188  RH  062%=      5-min Rain = 0
KOD1 160057Z 10012KT 27/19 A299 RMK A01 T02660188  RH  062%=      5-min Rain = 0
KOD1 160058Z 10012KT 27/19 A299 RMK A01 T02660189  RH  063%=      5-min Rain = 0
KOD1 160059Z 10011KT 27/19 A299 RMK A01 T02660189  RH  063%=      5-min Rain = 0
KOD1 160100Z 10012KT 27/19 A299 RMK A01 T02660189  RH  063%=      5-min Rain = 0
KOD1 160101Z 10011KT 27/19 A299 RMK A01 T02660189  RH  063%=      5-min Rain = 0
KOD1 160102Z 11010KT 27/19 A299 RMK A01 T02660190  RH  063%=      5-min Rain = 0
KOD1 160103Z 11010KT 27/19 A299 RMK A01 T02650190  RH  063%=      5-min Rain = 0
KOD1 160104Z 11012KT 27/19 A299 RMK A01 T02650189  RH  063%=      5-min Rain = 0
KOD1 160105Z 11011KT 27/19 A299 RMK A01 T02650190  RH  063%=      5-min Rain = 0
KOD1 160106Z 11010KT 27/19 A299 RMK A01 T02650190  RH  063%=      5-min Rain = 0
KOD1 160107Z 11013KT 27/19 A299 RMK A01 T02650189  RH  063%=      5-min Rain = 0
KOD1 160108Z 12012KT 27/19 A299 RMK A01 T02650189  RH  063%=      5-min Rain = 0
KOD1 160109Z 11010KT 27/19 A299 RMK A01 T02650189  RH  063%=      5-min Rain = 0
KOD1 160110Z 10013KT 27/19 A299 RMK A01 T02650189  RH  063%=      5-min Rain = 0
KOD1 160111Z 12014KT 27/19 A2991 RMK A01 T02650188  RH  063%=      5-min Rain = 0
KOD1 160112Z 11010KT 26/19 A2991 RMK A01 T02640189  RH  063%=      5-min Rain = 0
KOD1 160113Z 11014KT 26/19 A2991 RMK A01 T02640189  RH  063%=      5-min Rain = 0
KOD1 160114Z 11013KT 26/19 A2991 RMK A01 T02640189  RH  063%=      5-min Rain = 0
KOD1 160115Z 12014G19KT 26/19 A2991 RMK A01 T02640189  RH  064%=      5-min Rain = 0
KOD1 160116Z 12017KT 26/19 A2991 RMK A01 T02630190  RH  064%=      5-min Rain = 0
KOD1 160117Z 12014G19KT 26/19 A2991 RMK A01 T02630191  RH  065%=      5-min Rain = 0
KOD1 160118Z 12014KT 26/19 A2991 RMK A01 T02620191  RH  065%=      5-min Rain = 0
KOD1 160119Z 12015KT 26/19 A2991 RMK A01 T02620191  RH  065%=      5-min Rain = 0
KOD1 160120Z 12013KT 26/19 A2991 RMK A01 T02620192  RH  065%=      5-min Rain = 0
KOD1 160121Z 11012KT 26/19 A299 RMK A01 T02620192  RH  065%=      5-min Rain = 0
KOD1 160122Z 12010KT 26/19 A299 RMK A01 T02610192  RH  065%=      5-min Rain = 0
KOD1 160123Z 11010KT 26/19 A299 RMK A01 T02610192  RH  066%=      5-min Rain = 0
KOD1 160124Z 12010KT 26/19 A299 RMK A01 T02610192  RH  066%=      5-min Rain = 0
KOD1 160125Z 11012KT 26/19 A299 RMK A01 T02600192  RH  066%=      5-min Rain = 0
KOD1 160126Z 11012KT 26/19 A299 RMK A01 T02600193  RH  066%=      5-min Rain = 0
KOD1 160127Z 12010KT 26/19 A2991 RMK A01 T02600193  RH  067%=      5-min Rain = 0
KOD1 160128Z 12013KT 26/19 A2991 RMK A01 T02600194  RH  067%=      5-min Rain = 0
KOD1 160129Z 11016KT 26/19 A2991 RMK A01 T02590194  RH  067%=      5-min Rain = 0
KOD1 160130Z 12015G20KT 26/20 A2991 RMK A01 T02590195  RH  068%=      5-min Rain = 0
KOD1 160131Z 12019KT 26/19 A2991 RMK A01 T02590194  RH  067%=      5-min Rain = 0
KOD1 160132Z 12015KT 26/19 A2991 RMK A01 T02580194  RH  068%=      5-min Rain = 0
KOD1 160133Z 11016KT 26/19 A2991 RMK A01 T02580194  RH  068%=      5-min Rain = 0
KOD1 160134Z 12015KT 26/19 A2991 RMK A01 T02580194  RH  068%=      5-min Rain = 0
KOD1 160135Z 11013KT 26/19 A2991 RMK A01 T02570193  RH  068%=      5-min Rain = 0
KOD1 160136Z 12016KT 26/19 A2991 RMK A01 T02570193  RH  068%=      5-min Rain = 0
KOD1 160137Z 12013KT 26/19 A2991 RMK A01 T02570193  RH  068%=      5-min Rain = 0
KOD1 160138Z 11012KT 26/19 A2991 RMK A01 T02560193  RH  068%=      5-min Rain = 0
KOD1 160139Z 12015KT 26/19 A2991 RMK A01 T02560193  RH  068%=      5-min Rain = 0
KOD1 160140Z 12012KT 26/19 A2991 RMK A01 T02560192  RH  068%=      5-min Rain = 0
KOD1 160141Z 12012KT 26/19 A2991 RMK A01 T02550192  RH  068%=      5-min Rain = 0
KOD1 160142Z 12013KT 26/19 A2991 RMK A01 T02550191  RH  068%=      5-min Rain = 0
KOD1 160143Z 12011KT 26/19 A2991 RMK A01 T02550191  RH  068%=      5-min Rain = 0
KOD1 160144Z 12014KT 26/19 A2991 RMK A01 T02550190  RH  067%=      5-min Rain = 0
KOD1 160145Z 11014KT 25/19 A2991 RMK A01 T02540189  RH  067%=      5-min Rain = 0
KOD1 160146Z 12013KT 25/19 A2991 RMK A01 T02540189  RH  067%=      5-min Rain = 0
KOD1 160147Z 12012KT 25/19 A2991 RMK A01 T02540189  RH  067%=      5-min Rain = 0
KOD1 160148Z 11012KT 25/19 A2991 RMK A01 T02540189  RH  067%=      5-min Rain = 0
KOD1 160149Z 12012KT 25/19 A2991 RMK A01 T02530189  RH  067%=      5-min Rain = 0
KOD1 160150Z 12014KT 25/19 A2991 RMK A01 T02530189  RH  068%=      5-min Rain = 0
KOD1 160151Z 12014KT 25/19 A2991 RMK A01 T02530189  RH  068%=      5-min Rain = 0
KOD1 160152Z 12015KT 25/19 A2991 RMK A01 T02530189  RH  067%=      5-min Rain = 0
KOD1 160153Z 12014KT 25/19 A2991 RMK A01 T02530188  RH  067%=      5-min Rain = 0
KOD1 160154Z 12012KT 25/19 A2991 RMK A01 T02530188  RH  068%=      5-min Rain = 0
KOD1 160155Z 11013KT 25/19 A2991 RMK A01 T02520188  RH  068%=      5-min Rain = 0
KOD1 160156Z 11011G16KT 25/19 A2991 RMK A01 T02520188  RH  068%=      5-min Rain = 0
KOD1 160157Z 12011KT 25/19 A2991 RMK A01 T02520189  RH  068%=      5-min Rain = 0
KOD1 160158Z 12011KT 25/19 A2991 RMK A01 T02510189  RH  068%=      5-min Rain = 0
KOD1 160159Z 12012KT 25/19 A2991 RMK A01 T02510189  RH  068%=      5-min Rain = 0
KOD1 160200Z 12014KT 25/19 A2991 RMK A01 T02500188  RH  068%=      5-min Rain = 0
KOD1 160201Z 12014KT 25/19 A2991 RMK A01 T02500188  RH  068%=      5-min Rain = 0
KOD1 160202Z 12016KT 25/19 A2991 RMK A01 T02500188  RH  068%=      5-min Rain = 0
KOD1 160203Z 12013KT 25/19 A2991 RMK A01 T02500188  RH  068%=      5-min Rain = 0
KOD1 160204Z 12012KT 25/19 A2991 RMK A01 T02500188  RH  068%=      5-min Rain = 0
KOD1 160205Z 12013KT 25/19 A2991 RMK A01 T02500188  RH  068%=      5-min Rain = 0
KOD1 160206Z 12014KT 25/19 A2991 RMK A01 T02490187  RH  068%=      5-min Rain = 0
KOD1 160207Z 11012KT 25/19 A2991 RMK A01 T02490187  RH  068%=      5-min Rain = 0
KOD1 160208Z 11012KT 25/19 A2992 RMK A01 T02490187  RH  068%=      5-min Rain = 0
KOD1 160209Z 11011KT 25/19 A2992 RMK A01 T02490187  RH  068%=      5-min Rain = 0
KOD1 160210Z 11010KT 25/19 A2992 RMK A01 T02490187  RH  069%=      5-min Rain = 0
KOD1 160211Z 11009KT 25/19 A2992 RMK A01 T02490187  RH  069%=      5-min Rain = 0
KOD1 160212Z 11008KT 25/19 A2992 RMK A01 T02480188  RH  069%=      5-min Rain = 0
KOD1 160213Z 11009KT 25/19 A2992 RMK A01 T02480188  RH  069%=      5-min Rain = 0
KOD1 160214Z 11010KT 25/19 A2992 RMK A01 T02480187  RH  069%=      5-min Rain = 0
KOD1 160215Z 11011KT 25/19 A2992 RMK A01 T02480187  RH  069%=      5-min Rain = 0
KOD1 160216Z 11011KT 25/19 A2993 RMK A01 T02480187  RH  069%=      5-min Rain = 0
KOD1 160217Z 11011KT 25/19 A2993 RMK A01 T02480187  RH  069%=      5-min Rain = 0
KOD1 160218Z 11011KT 25/19 A2993 RMK A01 T02480187  RH  069%=      5-min Rain = 0
KOD1 160219Z 11011KT 25/19 A2993 RMK A01 T02480187  RH  069%=      5-min Rain = 0
KOD1 160220Z 11011KT 25/19 A2993 RMK A01 T02480186  RH  069%=      5-min Rain = 0
KOD1 160221Z 11011KT 25/19 A2993 RMK A01 T02480186  RH  069%=      5-min Rain = 0
KOD1 160222Z 11011KT 25/19 A2993 RMK A01 T02480186  RH  069%=      5-min Rain = 0
KOD1 160223Z 10012KT 25/19 A2993 RMK A01 T02480186  RH  069%=      5-min Rain = 0
KOD1 160224Z 11012KT 25/19 A2994 RMK A01 T02480186  RH  068%=      5-min Rain = 0
KOD1 160225Z 11011KT 25/19 A2994 RMK A01 T02480186  RH  068%=      5-min Rain = 0
KOD1 160226Z 11009KT 25/19 A2994 RMK A01 T02480186  RH  069%=      5-min Rain = 0
KOD1 160227Z 11009KT 25/19 A2994 RMK A01 T02480187  RH  069%=      5-min Rain = 0
KOD1 160228Z 11009KT 25/19 A2994 RMK A01 T02480186  RH  069%=      5-min Rain = 0
KOD1 160229Z 10010KT 25/19 A2994 RMK A01 T02470186  RH  069%=      5-min Rain = 0
KOD1 160230Z 11010KT 25/19 A2994 RMK A01 T02470186  RH  069%=      5-min Rain = 0
KOD1 160231Z 11011KT 25/19 A2994 RMK A01 T02470186  RH  069%=      5-min Rain = 0
KOD1 160232Z 11010KT 25/19 A2994 RMK A01 T02470186  RH  069%=      5-min Rain = 0
KOD1 160233Z 11010KT 25/19 A2994 RMK A01 T02470186  RH  069%=      5-min Rain = 0
KOD1 160234Z 11009KT 25/19 A2994 RMK A01 T02470186  RH  069%=      5-min Rain = 0
KOD1 160235Z 11010KT 25/19 A2994 RMK A01 T02470186  RH  069%=      5-min Rain = 0
KOD1 160236Z 11009KT 25/19 A2994 RMK A01 T02470186  RH  069%=      5-min Rain = 0
KOD1 160237Z 11009KT 25/19 A2994 RMK A01 T02460186  RH  069%=      5-min Rain = 0
KOD1 160238Z 11010KT 25/19 A2994 RMK A01 T02460186  RH  069%=      5-min Rain = 0
KOD1 160239Z 11010KT 25/19 A2994 RMK A01 T02460186  RH  069%=      5-min Rain = 0
KOD1 160240Z 12010KT 25/19 A2994 RMK A01 T02460186  RH  069%=      5-min Rain = 0
KOD1 160241Z 12010KT 25/19 A2994 RMK A01 T02460186  RH  069%=      5-min Rain = 0
KOD1 160242Z 12009KT 25/19 A2994 RMK A01 T02460186  RH  069%=      5-min Rain = 0
KOD1 160243Z 12010KT 25/19 A2994 RMK A01 T02450186  RH  069%=      5-min Rain = 0
KOD1 160244Z 12009KT 25/19 A2994 RMK A01 T02450186  RH  070%=      5-min Rain = 0
KOD1 160245Z 12008KT 25/19 A2994 RMK A01 T02450186  RH  070%=      5-min Rain = 0
KOD1 160246Z 12009KT 25/19 A2994 RMK A01 T02450186  RH  070%=      5-min Rain = 0
KOD1 160247Z 12008KT 24/19 A2994 RMK A01 T02440186  RH  070%=      5-min Rain = 0
KOD1 160248Z 12010KT 24/19 A2994 RMK A01 T02440186  RH  070%=      5-min Rain = 0
KOD1 160249Z 12009KT 24/19 A2994 RMK A01 T02440186  RH  070%=      5-min Rain = 0
KOD1 160250Z 12009KT 24/19 A2994 RMK A01 T02440186  RH  070%=      5-min Rain = 0
KOD1 160251Z 12009KT 24/19 A2994 RMK A01 T02440186  RH  070%=      5-min Rain = 0
KOD1 160252Z 12007KT 24/19 A2994 RMK A01 T02430186  RH  070%=      5-min Rain = 0
KOD1 160253Z 12008KT 24/19 A2994 RMK A01 T02430186  RH  070%=      5-min Rain = 0
KOD1 160254Z 12008KT 24/19 A2994 RMK A01 T02430186  RH  071%=      5-min Rain = 0
KOD1 160255Z 12008KT 24/19 A2994 RMK A01 T02420186  RH  071%=      5-min Rain = 0
KOD1 160256Z 11008KT 24/19 A2994 RMK A01 T02420186  RH  071%=      5-min Rain = 0
KOD1 160257Z 11008KT 24/19 A2993 RMK A01 T02420186  RH  071%=      5-min Rain = 0
KOD1 160258Z 11008KT 24/19 A2993 RMK A01 T02420186  RH  071%=      5-min Rain = 0
KOD1 160259Z 11007KT 24/19 A2994 RMK A01 T02420186  RH  071%=      5-min Rain = 0
KOD1 160300Z 11006KT 24/19 A2994 RMK A01 T02410186  RH  071%=      5-min Rain = 0
KOD1 160301Z 11007KT 24/19 A2994 RMK A01 T02410185  RH  071%=      5-min Rain = 0
KOD1 160302Z 10007KT 24/19 A2994 RMK A01 T02410185  RH  071%=      5-min Rain = 0
KOD1 160303Z 11009KT 24/19 A2994 RMK A01 T02410185  RH  071%=      5-min Rain = 0
KOD1 160304Z 11008KT 24/19 A2994 RMK A01 T02410185  RH  071%=      5-min Rain = 0
KOD1 160305Z 10007KT 24/19 A2994 RMK A01 T02410185  RH  071%=      5-min Rain = 0
KOD1 160306Z 10007KT 24/19 A2994 RMK A01 T02410185  RH  071%=      5-min Rain = 0
KOD1 160307Z 10008KT 24/18 A2994 RMK A01 T02410184  RH  071%=      5-min Rain = 0
KOD1 160308Z 10009KT 24/18 A2994 RMK A01 T02410184  RH  071%=      5-min Rain = 0
KOD1 160309Z 10008KT 24/18 A2994 RMK A01 T02410184  RH  070%=      5-min Rain = 0
KOD1 160310Z 11006KT 24/18 A2994 RMK A01 T02410184  RH  071%=      5-min Rain = 0
KOD1 160311Z 11008KT 24/18 A2994 RMK A01 T02400184  RH  071%=      5-min Rain = 0
KOD1 160312Z 11009KT 24/18 A2994 RMK A01 T02400184  RH  071%=      5-min Rain = 0
KOD1 160313Z 11007KT 24/18 A2994 RMK A01 T02400184  RH  071%=      5-min Rain = 0
KOD1 160314Z 11008KT 24/18 A2994 RMK A01 T02400184  RH  071%=      5-min Rain = 0
KOD1 160315Z 12008KT 24/18 A2994 RMK A01 T02400184  RH  071%=      5-min Rain = 0
KOD1 160316Z 12008KT 24/18 A2994 RMK A01 T02390184  RH  071%=      5-min Rain = 0
KOD1 160317Z 13007KT 24/18 A2994 RMK A01 T02390184  RH  071%=      5-min Rain = 0
KOD1 160318Z 13008KT 24/18 A2994 RMK A01 T02390184  RH  071%=      5-min Rain = 0
KOD1 160319Z 13009KT 24/18 A2994 RMK A01 T02390184  RH  071%=      5-min Rain = 0
KOD1 160320Z 13009KT 24/18 A2994 RMK A01 T02390184  RH  071%=      5-min Rain = 0
KOD1 160321Z 14010KT 24/18 A2994 RMK A01 T02390184  RH  071%=      5-min Rain = 0
KOD1 160322Z 14009KT 24/18 A2994 RMK A01 T02400184  RH  071%=      5-min Rain = 0
KOD1 160323Z 13008KT 24/18 A2994 RMK A01 T02400184  RH  071%=      5-min Rain = 0
KOD1 160324Z 12009KT 24/18 A2994 RMK A01 T02390184  RH  071%=      5-min Rain = 0
KOD1 160325Z 12010KT 24/18 A2994 RMK A01 T02390184  RH  071%=      5-min Rain = 0
KOD1 160326Z 13011KT 24/18 A2994 RMK A01 T02390184  RH  071%=      5-min Rain = 0
KOD1 160327Z 12012KT 24/18 A2994 RMK A01 T02390184  RH  072%=      5-min Rain = 0
KOD1 160328Z 13011KT 24/19 A2994 RMK A01 T02380185  RH  072%=      5-min Rain = 0
KOD1 160329Z 13013KT 24/19 A2994 RMK A01 T02380185  RH  072%=      5-min Rain = 0
KOD1 160330Z 13013KT 24/19 A2995 RMK A01 T02370185  RH  073%=      5-min Rain = 0
KOD1 160331Z 13011KT 24/19 A2995 RMK A01 T02370187  RH  074%=      5-min Rain = 0
KOD1 160332Z 13010KT 24/19 A2995 RMK A01 T02360188  RH  075%=      5-min Rain = 0
KOD1 160333Z 13012KT 24/19 A2995 RMK A01 T02350188  RH  075%=      5-min Rain = 0
KOD1 160334Z 14011G18KT 23/19 A2995 RMK A01 T02340190  RH  076%=      5-min Rain = 0
KOD1 160335Z 14014KT 23/19 A2995 RMK A01 T02330190  RH  077%=      5-min Rain = 0
KOD1 160336Z 14014KT 23/19 A2995 RMK A01 T02320190  RH  077%=      5-min Rain = 0
KOD1 160337Z 14014KT 23/19 A2994 RMK A01 T02300192  RH  079%=      5-min Rain = 0
KOD1 160338Z 14016KT 23/19 A2994 RMK A01 T02290192  RH  079%=      5-min Rain = 0
KOD1 160339Z 14016KT 23/19 A2993 RMK A01 T02280192  RH  080%=      5-min Rain = 0
KOD1 160340Z 15015KT 23/19 A2993 RMK A01 T02270193  RH  081%=      5-min Rain = 0
KOD1 160341Z 14017KT 23/19 A2992 RMK A01 T02260193  RH  082%=      5-min Rain = 0
KOD1 160342Z 14017KT 23/19 A2992 RMK A01 T02250193  RH  082%=      5-min Rain = 0
KOD1 160343Z 15019KT 22/19 A2991 RMK A01 T02240194  RH  083%=      5-min Rain = 0
KOD1 160344Z 14020KT 22/20 A2991 RMK A01 T02230195  RH  084%=      5-min Rain = 0
KOD1 160345Z 14021KT 22/20 A2991 RMK A01 T02220195  RH  085%=      5-min Rain = 0
KOD1 160346Z 14021KT 22/20 A299 RMK A01 T02220196  RH  085%=      5-min Rain = 0
KOD1 160347Z 14019KT 22/20 A299 RMK A01 T02220196  RH  085%=      5-min Rain = 0
KOD1 160348Z 14017KT 22/20 A2991 RMK A01 T02230196  RH  085%=      5-min Rain = 0
KOD1 160349Z 14017KT 22/20 A2991 RMK A01 T02230196  RH  085%=      5-min Rain = 0
KOD1 160350Z 14017KT 22/20 A2991 RMK A01 T02230196  RH  085%=      5-min Rain = 0.01
KOD1 160351Z 14016KT 22/20 A2992 RMK A01 T02230196  RH  084%=      5-min Rain = 0
KOD1 160352Z 14016KT 22/20 A2992 RMK A01 T02240196  RH  084%=      5-min Rain = 0
KOD1 160353Z 15017KT 22/20 A2992 RMK A01 T02240196  RH  084%=      5-min Rain = 0
KOD1 160354Z 15018KT 22/20 A2992 RMK A01 T02240196  RH  085%=      5-min Rain = 0
KOD1 160355Z 15017KT 22/20 A2993 RMK A01 T02230197  RH  085%=      5-min Rain = 0
KOD1 160356Z 14015G21KT 22/20 A2992 RMK A01 T02230197  RH  085%=      5-min Rain = 0
KOD1 160357Z 14015KT 22/20 A2993 RMK A01 T02220197  RH  086%=      5-min Rain = 0
KOD1 160358Z 13015KT 22/20 A2993 RMK A01 T02220196  RH  085%=      5-min Rain = 0
KOD1 160359Z 14013KT 22/20 A2993 RMK A01 T02220196  RH  085%=      5-min Rain = 0
KOD1 160400Z 14014KT 22/20 A2994 RMK A01 T02220196  RH  085%=      5-min Rain = 0
KOD1 160401Z 15011G16KT 22/20 A2994 RMK A01 T02220195  RH  085%=      5-min Rain = 0
KOD1 160402Z 14008KT 22/20 A2994 RMK A01 T02220196  RH  085%=      5-min Rain = 0
KOD1 160403Z 14010KT 22/20 A2995 RMK A01 T02220196  RH  085%=      5-min Rain = 0
KOD1 160404Z 15008KT 22/20 A2995 RMK A01 T02220196  RH  085%=      5-min Rain = 0
KOD1 160405Z 15006KT 22/20 A2995 RMK A01 T02220196  RH  086%=      5-min Rain = 0
KOD1 160406Z 15006KT 22/20 A2995 RMK A01 T02220196  RH  086%=      5-min Rain = 0
KOD1 160407Z 15006KT 22/20 A2996 RMK A01 T02210196  RH  086%=      5-min Rain = 0
KOD1 160408Z 16006KT 22/20 A2996 RMK A01 T02210196  RH  086%=      5-min Rain = 0
KOD1 160409Z 18005KT 22/20 A2997 RMK A01 T02220196  RH  085%=      5-min Rain = 0
KOD1 160410Z 19003KT 22/20 A2997 RMK A01 T02220197  RH  085%=      5-min Rain = 0
KOD1 160411Z 18005KT 22/20 A2997 RMK A01 T02220196  RH  085%=      5-min Rain = 0
KOD1 160412Z 16004KT 22/20 A2998 RMK A01 T02230196  RH  085%=      5-min Rain = 0
KOD1 160413Z 16004KT 22/20 A2998 RMK A01 T02230196  RH  085%=      5-min Rain = 0
KOD1 160414Z 15003KT 22/20 A2998 RMK A01 T02240196  RH  085%=      5-min Rain = 0
KOD1 160415Z 16004KT 22/20 A2998 RMK A01 T02240195  RH  084%=      5-min Rain = 0
KOD1 160416Z 16005KT 23/20 A2998 RMK A01 T02250195  RH  084%=      5-min Rain = 0
KOD1 160417Z 12005KT 23/20 A2998 RMK A01 T02260195  RH  083%=      5-min Rain = 0
KOD1 160418Z 11005KT 23/20 A2998 RMK A01 T02270195  RH  082%=      5-min Rain = 0
KOD1 160419Z 13007KT 23/20 A2999 RMK A01 T02270195  RH  083%=      5-min Rain = 0
KOD1 160420Z 09006KT 23/20 A2999 RMK A01 T02260195  RH  083%=      5-min Rain = 0
KOD1 160421Z 13004KT 23/20 A30 RMK A01 T02260195  RH  083%=      5-min Rain = 0
KOD1 160422Z 15001KT 23/20 A3001 RMK A01 T02260196  RH  083%=      5-min Rain = 0
KOD1 160423Z 34002KT 23/20 A3001 RMK A01 T02260196  RH  083%=      5-min Rain = 0
KOD1 160424Z 33005KT 23/20 A3001 RMK A01 T02260196  RH  083%=      5-min Rain = 0
KOD1 160425Z 30005KT 23/20 A3002 RMK A01 T02260196  RH  083%=      5-min Rain = 0
KOD1 160426Z 28007KT 23/20 A3003 RMK A01 T02260197  RH  084%=      5-min Rain = 0
KOD1 160427Z 27009KT 23/20 A3004 RMK A01 T02270200  RH  085%=      5-min Rain = 0
KOD1 160428Z 28012KT 23/20 A3005 RMK A01 T02260201  RH  085%=      5-min Rain = 0
KOD1 160429Z 28015KT 23/20 A3005 RMK A01 T02260201  RH  086%=      5-min Rain = 0
KOD1 160430Z 27011KT 23/20 A3005 RMK A01 T02250201  RH  086%=      5-min Rain = 0
KOD1 160431Z 28008KT 23/20 A3005 RMK A01 T02250201  RH  086%=      5-min Rain = 0
KOD1 160432Z 29010KT 23/20 A3005 RMK A01 T02250201  RH  086%=      5-min Rain = 0.01
KOD1 160433Z 28010KT 22/20 A3005 RMK A01 T02240200  RH  086%=      5-min Rain = 0
KOD1 160434Z 28012KT 23/20 A3006 RMK A01 T02250198  RH  085%=      5-min Rain = 0
KOD1 160435Z 27011KT 23/20 A3006 RMK A01 T02260199  RH  085%=      5-min Rain = 0
KOD1 160436Z 28014KT 23/20 A3007 RMK A01 T02260201  RH  086%=      5-min Rain = 0
KOD1 160437Z 29019G27KT 22/20 A3007 RMK A01 T02240197  RH  085%=      5-min Rain = 0
KOD1 160438Z 28021KT 22/19 A3006 RMK A01 T02190191  RH  084%=      5-min Rain = 0
KOD1 160439Z 28022G29KT 22/19 A3006 RMK A01 T02150188  RH  085%=      5-min Rain = 0
KOD1 160440Z 28025KT 21/18 A3006 RMK A01 T02100183  RH  085%=      5-min Rain = 0
KOD1 160441Z 27024KT 21/18 A3006 RMK A01 T02060179  RH  084%=      5-min Rain = 0.01
KOD1 160442Z 26022KT 20/18 A3006 RMK A01 T02020175  RH  084%=      5-min Rain = 0.01
KOD1 160443Z 26022KT 20/17 A3005 RMK A01 T02000172  RH  084%=      5-min Rain = 0
KOD1 160444Z 26021KT 20/17 A3005 RMK A01 T01980169  RH  084%=      5-min Rain = 0.01
KOD1 160445Z 26018KT 20/17 A3004 RMK A01 T01960168  RH  084%=      5-min Rain = 0.01
KOD1 160446Z 27015KT 19/17 A3004 RMK A01 T01940165  RH  083%=      5-min Rain = 0
KOD1 160447Z 28014KT 19/17 A3003 RMK A01 T01930165  RH  084%=      5-min Rain = 0
KOD1 160448Z 29010KT 19/17 A3002 RMK A01 T01920165  RH  084%=      5-min Rain = 0
KOD1 160449Z 29009KT 19/17 A3002 RMK A01 T01920166  RH  085%=      5-min Rain = 0
KOD1 160450Z 30009KT 19/17 A3002 RMK A01 T01920166  RH  085%=      5-min Rain = 0.01
KOD1 160451Z 32010KT 19/17 A3002 RMK A01 T01910167  RH  086%=      5-min Rain = 0
KOD1 160452Z 33009KT 19/17 A3002 RMK A01 T01910168  RH  086%=      5-min Rain = 0
KOD1 160453Z 34009KT 19/17 A3001 RMK A01 T01910168  RH  087%=      5-min Rain = 0
KOD1 160454Z 35006KT 19/17 A3001 RMK A01 T01910170  RH  088%=      5-min Rain = 0
KOD1 160455Z 35003KT 19/17 A3001 RMK A01 T01920172  RH  088%=      5-min Rain = 0
KOD1 160456Z 34001KT 19/17 A30 RMK A01 T01920172  RH  088%=      5-min Rain = 0
KOD1 160457Z 21002KT 19/17 A30 RMK A01 T01920172  RH  088%=      5-min Rain = 0
KOD1 160458Z 17005KT 19/17 A2999 RMK A01 T01920173  RH  089%=      5-min Rain = 0
KOD1 160459Z 15009KT 19/18 A2999 RMK A01 T01930175  RH  089%=      5-min Rain = 0

Page generated in 0.1422 seconds.